DK5BM-6 Weather Reports


Display with metric or nautical units.
time (UTC)temp
F
wind
direction
speed
MPH
gust
MPH
rain 1hr
in
rain 24hr
in
rain mn
in
humidity
%
barometer
mb
20210619003756 64 223 8.0 17.0 0.17 0.17 0.17 87 995.2
20210619003655 64 216 7.0 18.0 0.15 0.15 0.15 88 995.3
20210619003555 64 213 6.0 27.0 0.15 0.15 0.15 87 995.3
20210619003455 64 211 7.0 27.0 0.12 0.12 0.12 86 995.5
20210619003355 65 213 4.0 27.0 0.08 0.08 0.08 84 995.9
20210619003254 65 211 7.0 27.0 0.06 0.06 0.06 83 995.9
20210619003155 66 205 10.0 27.0 0.05 0.05 0.05 79 996.0
20210619003055 66 203 10.0 27.0 0.05 0.05 0.05 79 995.8
20210619002957 66 201 8.0 34.0 0.04 0.04 0.04 79 995.6
20210619002856 66 191 11.0 34.0 0.04 0.04 0.04 78 995.8
20210619002755 66 186 10.0 34.0 0.04 0.04 0.04 80 995.6
20210619002656 66 183 11.0 34.0 0.04 0.04 0.04 79 995.6
20210619002555 66 182 5.0 34.0 0.02 0.02 0.02 83 995.8
20210619002455 66 177 10.0 34.0 0.01 0.01 0.01 82 995.9
20210619002354 66 172 11.0 34.0 0.01 0.01 0.01 83 995.7
20210619002255 67 173 14.0 34.0 0.00 0.00 0.00 78 995.8
20210619002156 68 172 17.0 34.0 0.00 0.00 0.00 77 995.8
20210619002055 68 167 11.0 34.0 0.00 0.00 0.00 76 995.7
20210619001956 68 166 14.0 34.0 0.00 0.00 0.00 75 995.9
20210619001856 69 168 11.0 30.0 0.00 0.00 0.00 75 996.1
20210619001755 69 174 20.0 30.0 0.00 0.00 0.00 74 996.3
20210619001654 70 178 15.0 25.0 0.00 0.00 0.00 72 996.5
20210619001555 71 174 12.0 25.0 0.00 0.00 0.00 71 996.2
20210619001456 71 181 8.0 15.0 0.00 0.00 0.00 70 996.4
20210619001355 71 182 8.0 15.0 0.00 0.00 0.00 69 996.1
20210619001255 71 173 8.0 15.0 0.00 0.00 0.00 69 996.3
20210619001156 71 184 8.0 14.0 0.00 0.00 0.00 69 996.4
20210619001055 71 198 2.0 6.0 0.00 0.00 0.00 69 995.8
20210619000955 71 205 2.0 4.0 0.00 0.00 0.00 69 995.6
20210619000855 71 215 0.0 4.0 0.00 0.00 0.00 69 995.3
20210619000755 70 218 2.0 4.0 0.00 0.00 0.00 69 995.1
20210619000655 70 221 2.0 4.0 0.00 0.00 0.00 69 994.8
20210619000555 70 227 0.0 4.0 0.00 0.00 0.00 69 994.7
20210619000455 70 228 0.0 4.0 0.00 0.00 0.00 69 994.8
20210619000355 70 231 0.0 4.0 0.00 0.00 0.00 69 994.8
20210619000256 70 233 0.0 9.0 0.00 0.00 0.00 69 994.8
20210619000155 70 230 0.0 9.0 0.00 0.00 0.00 69 994.8
20210619000054 70 228 0.0 9.0 0.00 0.00 0.00 69 995.0
20210618235956 70 228 0.0 9.0 0.00 0.00 0.00 69 994.7
20210618235855 71 230 0.0 11.0 0.00 0.00 0.00 68 994.8
20210618235756 71 230 1.0 14.0 0.00 0.00 0.00 68 994.9
20210618235656 71 235 2.0 14.0 0.00 0.00 0.00 68 995.0
20210618235555 71 230 2.0 14.0 0.00 0.00 0.00 68 994.9
20210618235455 71 225 2.0 14.0 0.00 0.00 0.00 68 995.0
20210618235355 71 220 2.0 16.0 0.00 0.00 0.00 67 995.0
20210618235254 71 223 4.0 16.0 0.00 0.00 0.00 67 994.9
20210618235155 71 223 4.0 16.0 0.00 0.00 0.00 67 995.2
20210618235055 71 228 4.0 16.0 0.00 0.00 0.00 65 995.1
20210618234955 71 230 4.0 16.0 0.00 0.00 0.00 65 995.0
20210618234856 72 234 6.0 16.0 0.00 0.00 0.00 65 995.0
20210618234755 72 234 9.0 16.0 0.00 0.00 0.00 65 994.9
20210618234655 72 231 7.0 16.0 0.00 0.00 0.00 65 994.9
20210618234556 72 234 8.0 16.0 0.00 0.00 0.00 64 994.9
20210618234457 72 237 8.0 16.0 0.00 0.00 0.00 64 994.6
20210618234355 72 245 9.0 16.0 0.00 0.00 0.00 64 994.7
20210618234254 72 244 4.0 16.0 0.00 0.00 0.00 64 994.8
20210618234155 72 245 7.0 16.0 0.00 0.00 0.00 64 994.7
20210618234055 72 245 9.0 16.0 0.00 0.00 0.00 64 994.8
20210618233956 72 241 8.0 14.0 0.00 0.00 0.00 64 994.9
20210618233855 72 239 4.0 14.0 0.00 0.00 0.00 64 994.9
20210618233755 73 237 5.0 14.0 0.00 0.00 0.00 64 994.9
20210618233654 73 239 8.0 14.0 0.00 0.00 0.00 64 994.9
20210618233555 73 239 2.0 13.0 0.00 0.00 0.00 64 994.6
20210618233455 73 233 5.0 13.0 0.00 0.00 0.00 64 994.9
20210618233355 73 226 3.0 11.0 0.00 0.00 0.00 64 995.0
20210618233255 73 224 2.0 11.0 0.00 0.00 0.00 64 995.0
20210618233155 73 223 4.0 11.0 0.00 0.00 0.00 64 994.9
20210618233056 73 225 4.0 11.0 0.00 0.00 0.00 65 995.1
20210618232956 73 226 4.0 11.0 0.00 0.00 0.00 65 995.1
20210618232855 73 222 4.0 11.0 0.00 0.00 0.00 66 995.0
20210618232755 73 224 4.0 11.0 0.00 0.00 0.00 66 995.1
20210618232655 73 227 2.0 11.0 0.00 0.00 0.00 66 994.9
20210618232555 73 229 6.0 11.0 0.00 0.00 0.00 66 995.1
20210618232455 73 234 5.0 11.0 0.00 0.00 0.00 66 995.1
20210618232355 73 238 4.0 9.0 0.00 0.00 0.00 66 995.2
20210618232256 73 244 6.0 9.0 0.00 0.00 0.00 66 995.2
20210618232155 73 246 4.0 14.0 0.00 0.00 0.00 66 995.4
20210618232056 73 240 2.0 14.0 0.00 0.00 0.00 66 995.3
20210618231955 73 236 2.0 14.0 0.00 0.00 0.00 66 995.2
20210618231856 73 236 3.0 14.0 0.00 0.00 0.00 66 995.0
20210618231754 73 232 2.0 14.0 0.00 0.00 0.00 66 995.1
20210618231655 73 228 4.0 14.0 0.00 0.00 0.00 66 995.0
20210618231555 73 229 3.0 14.0 0.00 0.00 0.00 66 995.0
20210618231457 73 227 3.0 14.0 0.00 0.00 0.00 66 995.0
20210618231355 73 227 6.0 14.0 0.00 0.00 0.00 65 995.0
20210618231256 73 224 4.0 14.0 0.00 0.00 0.00 65 994.8
20210618231156 73 225 5.0 14.0 0.00 0.00 0.00 65 994.8
20210618231056 73 225 2.0 11.0 0.00 0.00 0.00 65 995.1
20210618230956 73 229 4.0 11.0 0.00 0.00 0.00 65 995.0
20210618230856 73 230 4.0 11.0 0.00 0.00 0.00 64 994.9
20210618230755 73 232 4.0 11.0 0.00 0.00 0.00 64 994.8
20210618230655 74 231 6.0 11.0 0.00 0.00 0.00 64 994.8
20210618230556 74 229 4.0 11.0 0.00 0.00 0.00 64 994.8
20210618230454 74 228 4.0 11.0 0.00 0.00 0.00 64 994.8
20210618230355 74 224 6.0 11.0 0.00 0.00 0.00 64 994.7
20210618230255 74 226 5.0 11.0 0.00 0.00 0.00 64 994.5
20210618230155 74 223 4.0 11.0 0.00 0.00 0.00 64 994.5
20210618230054 74 223 0.0 11.0 0.00 0.00 0.00 64 994.6
20210618225957 74 220 2.0 11.0 0.00 0.00 0.00 64 994.5
20210618225855 74 219 3.0 11.0 0.00 0.00 0.00 63 994.5
20210618225755 74 219 2.0 11.0 0.00 0.00 0.00 64 994.7
20210618225655 74 222 2.0 11.0 0.00 0.00 0.00 64 994.4
20210618225555 74 227 1.0 11.0 0.00 0.00 0.00 64 994.5
20210618225455 74 228 4.0 11.0 0.00 0.00 0.00 64 994.4
20210618225355 74 230 2.0 11.0 0.00 0.00 0.00 64 994.4
20210618225254 74 225 4.0 11.0 0.00 0.00 0.00 64 994.4
20210618225155 74 220 2.0 8.0 0.00 0.00 0.00 64 994.7
20210618225055 74 226 4.0 8.0 0.00 0.00 0.00 64 994.7
20210618224955 74 229 0.0 8.0 0.00 0.00 0.00 66 994.8
20210618224856 75 229 0.0 8.0 0.00 0.00 0.00 65 994.6
20210618224755 75 229 0.0 8.0 0.00 0.00 0.00 65 994.6
20210618224655 75 228 2.0 8.0 0.00 0.00 0.00 65 994.6
20210618224556 75 224 3.0 8.0 0.00 0.00 0.00 66 994.9
20210618224457 75 227 2.0 8.0 0.00 0.00 0.00 66 995.0
20210618224356 75 227 4.0 8.0 0.00 0.00 0.00 66 994.7
20210618224256 75 223 4.0 8.0 0.00 0.00 0.00 66 994.8
20210618224155 75 229 3.0 8.0 0.00 0.00 0.00 67 994.9
20210618224055 75 220 3.0 8.0 0.00 0.00 0.00 66 994.7
20210618223955 75 218 2.0 8.0 0.00 0.00 0.00 66 994.7
20210618223855 75 218 0.0 8.0 0.00 0.00 0.00 66 994.7
20210618223755 75 220 2.0 8.0 0.00 0.00 0.00 66 994.9
20210618223655 75 223 2.0 11.0 0.00 0.00 0.00 66 994.7
20210618223554 75 225 1.0 11.0 0.00 0.00 0.00 66 994.8
20210618223455 75 231 2.0 11.0 0.00 0.00 0.00 66 995.1
20210618223355 75 231 3.0 11.0 0.00 0.00 0.00 66 994.8
20210618223255 75 235 3.0 11.0 0.00 0.00 0.00 66 994.8
20210618223156 75 240 4.0 11.0 0.00 0.00 0.00 66 994.9
20210618223055 75 244 4.0 11.0 0.00 0.00 0.00 66 995.0
20210618222956 75 244 3.0 11.0 0.00 0.00 0.00 66 994.9
20210618222855 75 247 6.0 11.0 0.00 0.00 0.00 66 994.8
20210618222754 75 252 5.0 11.0 0.00 0.00 0.00 66 995.1
20210618222655 75 252 6.0 11.0 0.00 0.00 0.00 66 994.9
20210618222556 75 252 4.0 11.0 0.00 0.00 0.00 66 994.8
20210618222455 75 249 1.0 11.0 0.00 0.00 0.00 66 994.8
20210618222356 75 245 4.0 11.0 0.00 0.00 0.00 66 994.7
20210618222255 75 246 3.0 11.0 0.00 0.00 0.00 66 995.0
20210618222154 75 243 4.0 11.0 0.00 0.00 0.00 66 994.8
20210618222055 75 244 4.0 11.0 0.00 0.00 0.00 66 994.6
20210618221955 76 248 4.0 13.0 0.00 0.00 0.00 66 994.8
20210618221855 76 251 6.0 13.0 0.00 0.00 0.00 65 994.8
20210618221755 76 247 1.0 13.0 0.00 0.00 0.00 65 994.7
20210618221655 76 247 1.0 13.0 0.00 0.00 0.00 65 994.6
20210618221555 76 245 4.0 13.0 0.00 0.00 0.00 65 994.9
20210618221456 76 245 4.0 13.0 0.00 0.00 0.00 65 994.5
20210618221355 76 248 4.0 13.0 0.00 0.00 0.00 65 994.6
20210618221255 76 246 1.0 13.0 0.00 0.00 0.00 65 994.6
20210618221155 76 245 2.0 13.0 0.00 0.00 0.00 65 994.8
20210618221055 76 243 3.0 13.0 0.00 0.00 0.00 65 994.8
20210618220955 76 239 4.0 8.0 0.00 0.00 0.00 65 994.8
20210618220856 76 232 4.0 7.0 0.00 0.00 0.00 64 994.6
20210618220755 76 229 4.0 7.0 0.00 0.00 0.00 64 994.3
20210618220656 76 227 5.0 7.0 0.00 0.00 0.00 64 994.8
20210618220555 76 226 2.0 7.0 0.00 0.00 0.00 64 994.6
20210618220456 76 225 2.0 7.0 0.00 0.00 0.00 64 994.7
20210618220355 76 231 2.0 11.0 0.00 0.00 0.00 64 994.6
20210618220255 76 235 2.0 11.0 0.00 0.00 0.00 64 994.6
20210618220156 76 236 2.0 11.0 0.00 0.00 0.00 64 994.4
20210618220055 76 236 3.0 11.0 0.00 0.00 0.00 64 994.6
20210618215957 76 239 2.0 11.0 0.00 0.00 0.00 64 994.6
20210618215855 76 244 0.0 11.0 0.00 0.00 0.00 64 994.4
20210618215756 76 238 0.0 11.0 0.00 0.00 0.00 64 994.4
20210618215655 76 237 1.0 11.0 0.00 0.00 0.00 64 994.4
20210618215555 76 238 1.0 11.0 0.00 0.00 0.00 64 994.4
20210618215455 76 238 2.0 11.0 0.00 0.00 0.00 64 994.7
20210618215355 76 230 1.0 7.0 0.00 0.00 0.00 64 994.5
20210618215255 76 225 0.0 7.0 0.00 0.00 0.00 64 994.4
20210618215155 76 225 0.0 7.0 0.00 0.00 0.00 64 994.5
20210618215056 76 226 0.0 7.0 0.00 0.00 0.00 64 994.7
20210618214955 77 225 2.0 7.0 0.00 0.00 0.00 64 994.6
20210618214855 77 216 3.0 7.0 0.00 0.00 0.00 64 994.6
20210618214755 76 226 1.0 4.0 0.00 0.00 0.00 64 994.6
20210618214656 77 226 1.0 4.0 0.00 0.00 0.00 64 994.7
20210618214555 77 222 1.0 6.0 0.00 0.00 0.00 64 994.6
20210618214456 77 219 2.0 6.0 0.00 0.00 0.00 64 994.8
20210618214356 77 223 2.0 6.0 0.00 0.00 0.00 64 994.8
20210618214255 76 223 0.0 6.0 0.00 0.00 0.00 64 994.7
20210618214156 77 224 0.0 6.0 0.00 0.00 0.00 64 994.6
20210618214055 77 225 0.0 6.0 0.00 0.00 0.00 64 994.6
20210618213956 77 225 0.0 6.0 0.00 0.00 0.00 64 994.7
20210618213855 77 229 0.0 6.0 0.00 0.00 0.00 64 994.8
20210618213755 77 234 1.0 6.0 0.00 0.00 0.00 64 994.6
20210618213655 77 237 2.0 6.0 0.00 0.00 0.00 64 994.8
20210618213555 77 242 2.0 6.0 0.00 0.00 0.00 64 995.0
20210618213455 77 243 0.0 4.0 0.00 0.00 0.00 65 995.0
20210618213355 76 243 0.0 4.0 0.00 0.00 0.00 65 994.8
20210618213255 76 242 0.0 4.0 0.00 0.00 0.00 65 994.7
20210618213155 76 241 0.0 4.0 0.00 0.00 0.00 66 994.8
20210618213055 76 239 0.0 4.0 0.00 0.00 0.00 66 994.8
20210618212957 76 237 2.0 4.0 0.00 0.00 0.00 66 994.6
20210618212855 76 235 2.0 4.0 0.00 0.00 0.00 66 994.7
20210618212756 76 232 1.0 4.0 0.00 0.00 0.00 66 994.5
20210618212655 76 231 1.0 4.0 0.00 0.00 0.00 66 994.7
20210618212555 76 229 2.0 4.0 0.00 0.00 0.00 66 994.5
20210618212456 76 230 2.0 4.0 0.00 0.00 0.00 66 994.7
20210618212356 76 229 3.0 4.0 0.00 0.00 0.00 66 994.7
20210618212255 76 231 2.0 4.0 0.00 0.00 0.00 66 994.4
20210618212155 76 231 2.0 4.0 0.00 0.00 0.00 66 994.4
20210618212056 76 231 2.0 4.0 0.00 0.00 0.00 66 994.4
20210618211956 76 233 2.0 4.0 0.00 0.00 0.00 66 994.4
20210618211856 76 234 2.0 4.0 0.00 0.00 0.00 66 994.4
20210618211756 76 238 2.0 4.0 0.00 0.00 0.00 65 994.1
20210618211655 76 242 2.0 4.0 0.00 0.00 0.00 65 994.3
20210618211555 77 248 0.0 4.0 0.00 0.00 0.00 65 994.2
20210618211456 77 248 0.0 4.0 0.00 0.00 0.00 65 994.2
20210618211355 77 255 2.0 4.0 0.00 0.00 0.00 65 993.9
20210618211255 77 292 0.0 2.0 0.00 0.00 0.00 65 994.1
20210618211155 77 292 0.0 2.0 0.00 0.00 0.00 65 994.0
20210618211055 77 292 0.0 2.0 0.00 0.00 0.00 65 993.8
20210618210955 77 270 0.0 2.0 0.00 0.00 0.00 65 994.0
20210618210855 77 258 0.0 2.0 0.00 0.00 0.00 65 993.9
20210618210756 77 258 0.0 2.0 0.00 0.00 0.00 65 994.0
20210618210655 77 258 0.0 2.0 0.00 0.00 0.00 65 994.0
20210618210555 76 258 0.0 2.0 0.00 0.00 0.00 66 993.7
20210618210455 77 258 0.0 2.0 0.00 0.00 0.00 65 993.9
20210618210355 77 250 0.0 2.0 0.00 0.00 0.00 66 993.9
20210618210255 76 239 0.0 2.0 0.00 0.00 0.00 65 993.7
20210618210155 77 239 0.0 2.0 0.00 0.00 0.00 66 993.9
20210618210055 77 239 1.0 2.0 0.00 0.00 0.00 65 993.6
20210618205957 76 225 0.0 2.0 0.00 0.00 0.00 66 993.8
20210618205855 76 0 0.0 0.0 0.00 0.00 0.00 66 993.7
20210618205755 76 0 0.0 0.0 0.00 0.00 0.00 66 993.9
20210618205655 76 0 0.0 0.0 0.00 0.00 0.00 66 993.8
20210618205555 77 0 0.0 0.0 0.00 0.00 0.00 65 993.8
20210618205455 76 248 0.0 2.0 0.00 0.00 0.00 66 993.9
20210618205355 76 248 0.0 2.0 0.00 0.00 0.00 66 993.9
20210618205255 77 248 0.0 2.0 0.00 0.00 0.00 66 994.0
20210618205155 77 248 0.0 2.0 0.00 0.00 0.00 66 993.8
20210618205055 77 248 0.0 2.0 0.00 0.00 0.00 65 993.8
20210618204955 77 251 0.0 2.0 0.00 0.00 0.00 66 993.7
20210618204855 77 253 0.0 2.0 0.00 0.00 0.00 66 994.0
20210618204755 77 245 0.0 2.0 0.00 0.00 0.00 66 993.7
20210618204655 77 245 0.0 2.0 0.00 0.00 0.00 65 993.8
20210618204555 77 243 0.0 2.0 0.00 0.00 0.00 65 993.7
20210618204457 77 240 0.0 2.0 0.00 0.00 0.00 65 993.6
20210618204355 77 237 0.0 2.0 0.00 0.00 0.00 65 993.8
20210618204255 77 236 0.0 2.0 0.00 0.00 0.00 65 993.6
20210618204155 77 236 0.0 2.0 0.00 0.00 0.00 65 993.8
20210618204055 77 235 0.0 2.0 0.00 0.00 0.00 65 993.8
20210618203955 77 225 0.0 2.0 0.00 0.00 0.00 65 993.8
20210618203855 77 216 0.0 2.0 0.00 0.00 0.00 64 993.8
20210618203755 77 225 0.0 2.0 0.00 0.00 0.00 64 993.8
20210618203655 77 225 0.0 2.0 0.00 0.00 0.00 64 993.6
20210618203555 77 225 0.0 2.0 0.00 0.00 0.00 64 993.6
20210618203455 77 0 0.0 0.0 0.00 0.00 0.00 64 993.5
20210618203355 77 0 0.0 0.0 0.00 0.00 0.00 64 993.5
20210618203255 77 248 0.0 2.0 0.00 0.00 0.00 64 993.3
20210618203156 77 248 0.0 2.0 0.00 0.00 0.00 64 993.7
20210618203055 78 248 0.0 2.0 0.00 0.00 0.00 64 993.8
20210618202956 78 248 0.0 2.0 0.00 0.00 0.00 64 993.7
20210618202855 78 258 0.0 4.0 0.00 0.00 0.00 63 993.6
20210618202755 78 258 0.0 4.0 0.00 0.00 0.00 63 993.7
20210618202655 78 258 0.0 4.0 0.00 0.00 0.00 63 993.8
20210618202555 78 258 0.0 4.0 0.00 0.00 0.00 63 993.6
20210618202455 78 254 0.0 4.0 0.00 0.00 0.00 63 993.8
20210618202355 78 254 0.0 4.0 0.00 0.00 0.00 62 993.6
20210618202255 78 254 0.0 4.0 0.00 0.00 0.00 62 993.5
20210618202155 78 254 0.0 4.0 0.00 0.00 0.00 62 993.8
20210618202056 78 255 0.0 4.0 0.00 0.00 0.00 62 993.6
20210618201955 78 256 0.0 4.0 0.00 0.00 0.00 62 993.7
20210618201855 78 239 1.0 4.0 0.00 0.00 0.00 62 993.5
20210618201755 78 228 0.0 4.0 0.00 0.00 0.00 61 993.5
20210618201655 78 236 0.0 4.0 0.00 0.00 0.00 60 993.5
20210618201555 78 238 0.0 4.0 0.00 0.00 0.00 60 993.6
20210618201456 78 236 0.0 6.0 0.00 0.00 0.00 61 993.6
20210618201356 78 243 0.0 6.0 0.00 0.00 0.00 61 993.5
20210618201255 78 243 0.0 6.0 0.00 0.00 0.00 60 993.8
20210618201155 78 242 0.0 6.0 0.00 0.00 0.00 60 993.5
20210618201055 78 243 0.0 6.0 0.00 0.00 0.00 59 993.5
20210618200956 79 243 0.0 6.0 0.00 0.00 0.00 59 993.6
20210618200855 79 243 2.0 6.0 0.00 0.00 0.00 59 993.3
20210618200755 79 246 3.0 6.0 0.00 0.00 0.00 59 993.7
20210618200655 79 243 2.0 6.0 0.00 0.00 0.00 58 993.7
20210618200555 79 237 2.0 6.0 0.00 0.00 0.00 58 993.6
20210618200455 79 239 2.0 6.0 0.00 0.00 0.00 58 993.8
20210618200355 79 233 2.0 6.0 0.00 0.00 0.00 57 993.7
20210618200255 79 231 2.0 6.0 0.00 0.00 0.00 57 993.5
20210618200155 79 231 2.0 6.0 0.00 0.00 0.00 57 993.6
20210618200056 79 228 0.0 6.0 0.00 0.00 0.00 57 993.6
20210618195956 79 230 0.0 6.0 0.00 0.00 0.00 57 993.6
20210618195855 79 229 2.0 6.0 0.00 0.00 0.00 57 993.6
20210618195755 79 227 2.0 6.0 0.00 0.00 0.00 57 993.5
20210618195655 79 227 3.0 6.0 0.00 0.00 0.00 57 993.3
20210618195555 78 229 3.0 4.0 0.00 0.00 0.00 57 993.4
20210618195455 78 230 2.0 4.0 0.00 0.00 0.00 57 993.2
20210618195355 78 229 1.0 4.0 0.00 0.00 0.00 56 993.5
20210618195255 78 230 2.0 4.0 0.00 0.00 0.00 57 993.3
20210618195155 78 230 1.0 4.0 0.00 0.00 0.00 57 993.3
20210618195055 78 231 2.0 4.0 0.00 0.00 0.00 57 993.3
20210618194956 77 225 2.0 4.0 0.00 0.00 0.00 57 993.2
20210618194855 77 225 0.0 2.0 0.00 0.00 0.00 57 993.4
20210618194755 77 225 1.0 2.0 0.00 0.00 0.00 57 993.4
20210618194655 77 225 0.0 2.0 0.00 0.00 0.00 58 993.6
20210618194555 77 0 0.0 0.0 0.00 0.00 0.00 57 993.1
20210618194456 77 0 0.0 0.0 0.00 0.00 0.00 57 993.3
20210618194355 77 0 0.0 0.0 0.00 0.00 0.00 57 993.3
20210618194255 77 0 0.0 0.0 0.00 0.00 0.00 57 993.3
20210618194155 77 0 0.0 0.0 0.00 0.00 0.00 57 993.3
20210618194055 77 0 0.0 0.0 0.00 0.00 0.00 57 993.3
20210618193955 77 0 0.0 0.0 0.00 0.00 0.00 56 993.3
20210618193855 77 0 0.0 0.0 0.00 0.00 0.00 56 993.2
20210618193755 77 0 0.0 0.0 0.00 0.00 0.00 56 993.2
20210618193655 78 0 0.0 0.0 0.00 0.00 0.00 55 993.4
20210618193555 78 225 0.0 2.0 0.00 0.00 0.00 55 993.2
20210618193455 78 225 0.0 2.0 0.00 0.00 0.00 55 993.4
20210618193355 78 225 0.0 2.0 0.00 0.00 0.00 54 993.4
20210618193256 78 225 0.0 2.0 0.00 0.00 0.00 54 993.4
20210618193155 78 225 0.0 2.0 0.00 0.00 0.00 55 993.3
20210618193055 78 225 0.0 2.0 0.00 0.00 0.00 54 993.3
20210618192957 79 225 0.0 2.0 0.00 0.00 0.00 54 993.3
20210618192855 79 225 0.0 2.0 0.00 0.00 0.00 54 993.3
20210618192755 79 225 0.0 2.0 0.00 0.00 0.00 54 993.4
20210618192655 79 225 0.0 2.0 0.00 0.00 0.00 53 993.3
20210618192556 79 225 0.0 2.0 0.00 0.00 0.00 53 993.2
20210618192455 79 225 0.0 2.0 0.00 0.00 0.00 52 993.2
20210618192355 79 225 0.0 2.0 0.00 0.00 0.00 52 993.0
20210618192255 79 225 0.0 2.0 0.00 0.00 0.00 52 993.3
20210618192155 80 225 0.0 2.0 0.00 0.00 0.00 52 993.1
20210618192056 80 225 0.0 2.0 0.00 0.00 0.00 52 992.9
20210618191955 80 225 1.0 2.0 0.00 0.00 0.00 52 993.2
20210618191855 80 225 1.0 2.0 0.00 0.00 0.00 51 993.1
20210618191755 80 225 1.0 2.0 0.00 0.00 0.00 52 993.0
20210618191656 80 225 0.0 2.0 0.00 0.00 0.00 52 993.0
20210618191555 80 225 0.0 2.0 0.00 0.00 0.00 51 993.0
20210618191456 80 225 1.0 2.0 0.00 0.00 0.00 51 993.1
20210618191355 80 230 1.0 2.0 0.00 0.00 0.00 51 993.0
20210618191255 80 239 0.0 4.0 0.00 0.00 0.00 51 993.0
20210618191155 80 241 0.0 4.0 0.00 0.00 0.00 51 993.1
20210618191055 80 241 1.0 4.0 0.00 0.00 0.00 51 993.0
20210618190956 80 239 0.0 4.0 0.00 0.00 0.00 51 992.9
20210618190855 80 237 0.0 4.0 0.00 0.00 0.00 51 992.9
20210618190755 80 235 0.0 4.0 0.00 0.00 0.00 51 992.9
20210618190655 80 234 1.0 4.0 0.00 0.00 0.00 51 993.3
20210618190556 80 235 2.0 4.0 0.00 0.00 0.00 51 993.3
20210618190455 80 239 1.0 4.0 0.00 0.00 0.00 50 993.1
20210618190355 80 233 0.0 4.0 0.00 0.00 0.00 50 993.3
20210618190255 80 226 2.0 4.0 0.00 0.00 0.00 51 993.2
20210618190155 81 221 0.0 4.0 0.00 0.00 0.00 50 993.2
20210618190056 81 219 0.0 4.0 0.00 0.00 0.00 50 993.1
20210618185957 81 215 2.0 4.0 0.00 0.00 0.00 50 993.0
20210618185855 81 214 1.0 4.0 0.00 0.00 0.00 50 993.1
20210618185755 81 207 2.0 4.0 0.00 0.00 0.00 49 993.1
20210618185655 81 203 2.0 4.0 0.00 0.00 0.00 49 993.2
20210618185556 81 195 2.0 4.0 0.00 0.00 0.00 50 993.2
20210618185455 81 183 1.0 4.0 0.00 0.00 0.00 50 993.2
20210618185355 81 181 1.0 4.0 0.00 0.00 0.00 53 993.0
20210618185255 81 181 2.0 4.0 0.00 0.00 0.00 52 993.1
20210618185156 81 181 0.0 4.0 0.00 0.00 0.00 52 993.1
20210618185055 81 181 1.0 4.0 0.00 0.00 0.00 52 993.3
20210618184955 81 181 0.0 4.0 0.00 0.00 0.00 51 993.1
20210618184855 81 181 2.0 4.0 0.00 0.00 0.00 51 993.2
20210618184756 81 0 0.0 0.0 0.00 0.00 0.00 52 993.0
20210618184655 81 0 0.0 0.0 0.00 0.00 0.00 52 992.9
20210618184555 81 0 0.0 0.0 0.00 0.00 0.00 51 993.1
20210618184457 81 0 0.0 0.0 0.00 0.00 0.00 50 992.9
20210618184355 82 0 0.0 0.0 0.00 0.00 0.00 50 993.0
20210618184255 82 0 0.0 0.0 0.00 0.00 0.00 50 993.1
20210618184155 82 0 0.0 0.0 0.00 0.00 0.00 50 993.1
20210618184055 82 0 0.0 0.0 0.00 0.00 0.00 50 992.9
20210618183955 82 0 0.0 0.0 0.00 0.00 0.00 50 992.9
20210618183855 82 0 0.0 0.0 0.00 0.00 0.00 50 993.0
20210618183755 82 0 0.0 0.0 0.00 0.00 0.00 49 992.9
20210618183656 82 0 0.0 0.0 0.00 0.00 0.00 48 992.8
20210618183555 82 0 0.0 0.0 0.00 0.00 0.00 48 992.8
20210618183455 82 0 0.0 0.0 0.00 0.00 0.00 47 992.9
20210618183355 82 0 0.0 0.0 0.00 0.00 0.00 47 992.8
20210618183256 81 0 0.0 0.0 0.00 0.00 0.00 48 992.8
20210618183155 81 0 0.0 0.0 0.00 0.00 0.00 48 992.7
20210618183055 81 0 0.0 0.0 0.00 0.00 0.00 48 992.9
20210618182957 81 0 0.0 0.0 0.00 0.00 0.00 48 992.9
20210618182855 81 0 0.0 0.0 0.00 0.00 0.00 48 992.7
20210618182755 81 0 0.0 0.0 0.00 0.00 0.00 48 992.7
20210618182656 81 0 0.0 0.0 0.00 0.00 0.00 49 992.9
20210618182556 81 0 0.0 0.0 0.00 0.00 0.00 49 992.9
20210618182455 81 0 0.0 0.0 0.00 0.00 0.00 49 992.9
20210618182355 81 0 0.0 0.0 0.00 0.00 0.00 49 992.8
20210618182255 81 0 0.0 0.0 0.00 0.00 0.00 50 992.8
20210618182156 81 0 0.0 0.0 0.00 0.00 0.00 49 992.8
20210618182055 82 0 0.0 0.0 0.00 0.00 0.00 49 993.0
20210618181955 82 0 0.0 0.0 0.00 0.00 0.00 48 992.9
20210618181855 82 0 0.0 0.0 0.00 0.00 0.00 46 992.8
20210618181756 82 0 0.0 0.0 0.00 0.00 0.00 44 992.8
20210618181655 82 0 0.0 0.0 0.00 0.00 0.00 44 992.8
20210618181555 81 0 0.0 0.0 0.00 0.00 0.00 44 992.8
20210618181457 81 0 0.0 0.0 0.00 0.00 0.00 44 992.7
20210618181355 81 0 0.0 0.0 0.00 0.00 0.00 44 992.6
20210618181255 81 0 0.0 0.0 0.00 0.00 0.00 45 992.7
20210618181156 81 0 0.0 0.0 0.00 0.00 0.00 44 992.6
20210618181056 81 0 0.0 0.0 0.00 0.00 0.00 45 992.7
20210618180955 81 0 0.0 0.0 0.00 0.00 0.00 46 992.6
20210618180855 81 0 0.0 0.0 0.00 0.00 0.00 47 992.8
20210618180755 81 0 0.0 0.0 0.00 0.00 0.00 46 992.7
20210618180655 81 0 0.0 0.0 0.00 0.00 0.00 47 992.9
20210618180556 81 0 0.0 0.0 0.00 0.00 0.00 47 992.6
20210618180455 81 0 0.0 0.0 0.00 0.00 0.00 47 992.5
20210618180355 81 0 0.0 0.0 0.00 0.00 0.00 47 992.7
20210618180255 81 0 0.0 0.0 0.00 0.00 0.00 48 992.6
20210618180155 81 0 0.0 0.0 0.00 0.00 0.00 46 992.6
20210618180056 81 0 0.0 0.0 0.00 0.00 0.00 46 992.7
20210618175956 81 0 0.0 0.0 0.00 0.00 0.00 48 992.5
20210618175856 81 0 0.0 0.0 0.00 0.00 0.00 46 992.7
20210618175755 81 0 0.0 0.0 0.00 0.00 0.00 46 992.3
20210618175655 81 0 0.0 0.0 0.00 0.00 0.00 46 992.5
20210618175555 81 0 0.0 0.0 0.00 0.00 0.00 46 992.4
20210618175456 81 0 0.0 0.0 0.00 0.00 0.00 45 992.6
20210618175355 81 0 0.0 0.0 0.00 0.00 0.00 47 992.7
20210618175255 81 0 0.0 0.0 0.00 0.00 0.00 48 992.6
20210618175155 81 0 0.0 0.0 0.00 0.00 0.00 45 992.5
20210618175056 81 0 0.0 0.0 0.00 0.00 0.00 45 992.7
20210618174955 81 0 0.0 0.0 0.00 0.00 0.00 46 992.5
20210618174855 81 0 0.0 0.0 0.00 0.00 0.00 48 992.5
20210618174755 81 0 0.0 0.0 0.00 0.00 0.00 48 992.3
20210618174656 81 0 0.0 0.0 0.00 0.00 0.00 48 992.6
20210618174555 81 0 0.0 0.0 0.00 0.00 0.00 48 992.7
20210618174456 81 0 0.0 0.0 0.00 0.00 0.00 47 992.7
20210618174356 82 0 0.0 0.0 0.00 0.00 0.00 47 992.4
20210618174255 82 0 0.0 0.0 0.00 0.00 0.00 46 992.6
20210618174155 82 0 0.0 0.0 0.00 0.00 0.00 44 992.7
20210618174055 82 0 0.0 0.0 0.00 0.00 0.00 43 992.4
20210618173956 82 0 0.0 0.0 0.00 0.00 0.00 44 992.3
20210618173856 82 0 0.0 0.0 0.00 0.00 0.00 44 992.2
20210618173755 82 0 0.0 0.0 0.00 0.00 0.00 44 992.6
20210618173655 82 0 0.0 0.0 0.00 0.00 0.00 43 992.5
20210618173555 82 0 0.0 0.0 0.00 0.00 0.00 44 992.5
20210618173456 82 0 0.0 0.0 0.00 0.00 0.00 43 992.5
20210618173355 82 0 0.0 0.0 0.00 0.00 0.00 43 992.6
20210618173255 82 0 0.0 0.0 0.00 0.00 0.00 43 992.6
20210618173155 82 0 0.0 0.0 0.00 0.00 0.00 43 992.7
20210618173056 82 0 0.0 0.0 0.00 0.00 0.00 43 992.6
20210618172956 82 0 0.0 0.0 0.00 0.00 0.00 43 992.5
20210618172856 82 0 0.0 0.0 0.00 0.00 0.00 42 992.7
20210618172755 82 0 0.0 0.0 0.00 0.00 0.00 42 992.3
20210618172655 83 0 0.0 0.0 0.00 0.00 0.00 42 992.7
20210618172555 83 0 0.0 0.0 0.00 0.00 0.00 42 992.4
20210618172456 83 0 0.0 0.0 0.00 0.00 0.00 43 992.7
20210618172355 83 0 0.0 0.0 0.00 0.00 0.00 43 992.6
20210618172255 83 0 0.0 0.0 0.00 0.00 0.00 43 992.4
20210618172155 83 0 0.0 0.0 0.00 0.00 0.00 43 992.3
20210618172055 83 0 0.0 0.0 0.00 0.00 0.00 43 992.4
20210618171956 83 0 0.0 0.0 0.00 0.00 0.00 42 992.4
20210618171855 83 0 0.0 0.0 0.00 0.00 0.00 44 992.6
20210618171755 83 0 0.0 0.0 0.00 0.00 0.00 42 992.4
20210618171655 83 0 0.0 0.0 0.00 0.00 0.00 42 992.5
20210618171555 83 0 0.0 0.0 0.00 0.00 0.00 45 992.7
20210618171457 83 0 0.0 0.0 0.00 0.00 0.00 43 992.4
20210618171355 83 0 0.0 0.0 0.00 0.00 0.00 42 992.5
20210618171256 83 0 0.0 0.0 0.00 0.00 0.00 41 992.3
20210618171155 83 0 0.0 0.0 0.00 0.00 0.00 42 992.3
20210618171055 83 0 0.0 0.0 0.00 0.00 0.00 42 992.3
20210618170955 83 0 0.0 0.0 0.00 0.00 0.00 42 992.4
20210618170855 83 0 0.0 0.0 0.00 0.00 0.00 42 992.2
20210618170756 83 0 0.0 0.0 0.00 0.00 0.00 42 992.2
20210618170655 84 0 0.0 0.0 0.00 0.00 0.00 41 992.3
20210618170555 84 0 0.0 0.0 0.00 0.00 0.00 41 992.3
20210618170455 84 0 0.0 0.0 0.00 0.00 0.00 41 992.3
20210618170356 84 0 0.0 0.0 0.00 0.00 0.00 41 992.3
20210618170255 84 0 0.0 0.0 0.00 0.00 0.00 41 992.2
20210618170155 84 0 0.0 0.0 0.00 0.00 0.00 41 992.3
20210618170055 84 0 0.0 0.0 0.00 0.00 0.00 41 992.2
20210618165957 84 0 0.0 0.0 0.00 0.00 0.00 40 992.3
20210618165855 85 0 0.0 0.0 0.00 0.00 0.00 39 992.3
20210618165756 85 0 0.0 0.0 0.00 0.00 0.00 40 992.3
20210618165656 85 0 0.0 0.0 0.00 0.00 0.00 40 992.5
20210618165555 85 0 0.0 0.0 0.00 0.00 0.00 39 992.3
20210618165455 85 0 0.0 0.0 0.00 0.00 0.00 39 992.2
20210618165355 85 0 0.0 0.0 0.00 0.00 0.00 41 992.5
20210618165256 85 0 0.0 0.0 0.00 0.00 0.00 40 992.4
20210618165155 85 0 0.0 0.0 0.00 0.00 0.00 40 992.3
20210618165055 85 46 0.0 2.0 0.00 0.00 0.00 39 992.3
20210618164955 85 46 0.0 2.0 0.00 0.00 0.00 41 992.3
20210618164855 85 46 0.0 2.0 0.00 0.00 0.00 39 992.3
20210618164756 86 46 0.0 2.0 0.00 0.00 0.00 39 992.4
20210618164656 86 46 0.0 2.0 0.00 0.00 0.00 37 992.4
20210618164555 86 65 0.0 2.0 0.00 0.00 0.00 37 992.3
20210618164457 86 62 0.0 2.0 0.00 0.00 0.00 38 992.3
20210618164355 86 56 0.0 2.0 0.00 0.00 0.00 38 992.3
20210618164255 86 56 0.0 2.0 0.00 0.00 0.00 38 992.3
20210618164155 87 56 0.0 2.0 0.00 0.00 0.00 37 992.4
20210618164056 87 61 0.0 2.0 0.00 0.00 0.00 37 992.3
20210618163956 87 61 0.0 2.0 0.00 0.00 0.00 35 992.1
20210618163855 87 49 0.0 2.0 0.00 0.00 0.00 37 992.3
20210618163755 87 54 0.0 4.0 0.00 0.00 0.00 35 992.3
20210618163655 87 65 0.0 4.0 0.00 0.00 0.00 35 992.1
20210618163556 87 65 0.0 4.0 0.00 0.00 0.00 35 992.1
20210618163456 88 71 0.0 4.0 0.00 0.00 0.00 35 992.3
20210618163355 88 76 0.0 4.0 0.00 0.00 0.00 35 992.3
20210618163255 88 73 0.0 4.0 0.00 0.00 0.00 35 992.3
20210618163155 89 75 0.0 4.0 0.00 0.00 0.00 35 992.2
20210618163056 89 77 0.0 4.0 0.00 0.00 0.00 35 992.2
20210618162956 89 72 0.0 4.0 0.00 0.00 0.00 36 992.3
20210618162856 89 70 0.0 4.0 0.00 0.00 0.00 34 992.1
20210618162755 89 67 2.0 4.0 0.00 0.00 0.00 33 992.3
20210618162655 89 63 1.0 4.0 0.00 0.00 0.00 33 992.2
20210618162555 89 60 1.0 4.0 0.00 0.00 0.00 33 992.0
20210618162456 89 55 2.0 4.0 0.00 0.00 0.00 32 992.1
20210618162355 89 50 2.0 4.0 0.00 0.00 0.00 32 992.4
20210618162255 89 46 1.0 2.0 0.00 0.00 0.00 32 992.3
20210618162155 89 32 2.0 2.0 0.00 0.00 0.00 33 992.2
20210618162056 89 1 1.0 2.0 0.00 0.00 0.00 33 992.2
20210618161955 89 1 2.0 2.0 0.00 0.00 0.00 33 992.3
20210618161855 90 1 1.0 2.0 0.00 0.00 0.00 33 992.1
20210618161755 90 1 0.0 2.0 0.00 0.00 0.00 35 992.4
20210618161656 90 1 0.0 2.0 0.00 0.00 0.00 33 992.2
20210618161556 90 1 0.0 2.0 0.00 0.00 0.00 32 992.0
20210618161457 90 16 0.0 2.0 0.00 0.00 0.00 34 992.3
20210618161356 90 16 0.0 2.0 0.00 0.00 0.00 33 992.3
20210618161255 90 21 0.0 2.0 0.00 0.00 0.00 34 992.3
20210618161155 90 33 0.0 2.0 0.00 0.00 0.00 33 992.4
20210618161056 89 42 0.0 2.0 0.00 0.00 0.00 34 992.3
20210618160955 89 46 0.0 2.0 0.00 0.00 0.00 33 992.3
20210618160855 89 52 0.0 4.0 0.00 0.00 0.00 34 992.2
20210618160755 89 52 0.0 4.0 0.00 0.00 0.00 34 992.3
20210618160656 89 48 0.0 4.0 0.00 0.00 0.00 33 992.1
20210618160556 89 43 0.0 4.0 0.00 0.00 0.00 33 991.9
20210618160455 89 40 0.0 4.0 0.00 0.00 0.00 34 991.9
20210618160355 89 39 0.0 4.0 0.00 0.00 0.00 34 992.3
20210618160256 89 32 0.0 4.0 0.00 0.00 0.00 32 992.1
20210618160156 90 24 1.0 4.0 0.00 0.00 0.00 34 992.0
20210618160055 90 13 0.0 4.0 0.00 0.00 0.00 33 992.1
20210618155957 90 4 1.0 4.0 0.00 0.00 0.00 33 992.3
20210618155855 90 351 2.0 4.0 0.00 0.00 0.00 33 992.0
20210618155755 90 341 1.0 2.0 0.00 0.00 0.00 34 992.1
20210618155656 90 344 0.0 2.0 0.00 0.00 0.00 34 992.1
20210618155555 90 346 1.0 2.0 0.00 0.00 0.00 33 992.2
20210618155455 90 347 0.0 2.0 0.00 0.00 0.00 35 992.2
20210618155355 89 352 0.0 4.0 0.00 0.00 0.00 33 992.0
20210618155255 89 359 1.0 4.0 0.00 0.00 0.00 35 992.2
20210618155156 89 7 2.0 4.0 0.00 0.00 0.00 34 992.4
20210618155056 90 7 2.0 4.0 0.00 0.00 0.00 33 992.3
20210618154955 90 12 1.0 4.0 0.00 0.00 0.00 34 992.3
20210618154855 90 21 1.0 4.0 0.00 0.00 0.00 33 992.1
20210618154755 90 27 1.0 4.0 0.00 0.00 0.00 34 992.3
20210618154656 90 30 1.0 4.0 0.00 0.00 0.00 34 992.2
20210618154555 89 30 0.0 4.0 0.00 0.00 0.00 35 992.2
20210618154457 88 31 1.0 4.0 0.00 0.00 0.00 35 992.0
20210618154355 88 34 2.0 6.0 0.00 0.00 0.00 33 992.1
20210618154255 89 37 2.0 6.0 0.00 0.00 0.00 34 992.0
20210618154155 90 45 2.0 6.0 0.00 0.00 0.00 34 992.3
20210618154055 90 50 1.0 6.0 0.00 0.00 0.00 34 992.1
20210618153955 89 46 1.0 6.0 0.00 0.00 0.00 33 992.3
20210618153856 89 41 2.0 6.0 0.00 0.00 0.00 33 992.4
20210618153755 89 39 3.0 6.0 0.00 0.00 0.00 33 992.4
20210618153655 89 31 2.0 6.0 0.00 0.00 0.00 33 992.6
20210618153555 89 31 2.0 6.0 0.00 0.00 0.00 32 992.3
20210618153456 89 31 2.0 6.0 0.00 0.00 0.00 33 992.3
20210618153355 89 28 3.0 6.0 0.00 0.00 0.00 33 992.3
20210618153255 90 26 3.0 4.0 0.00 0.00 0.00 32 992.3
20210618153155 90 21 2.0 4.0 0.00 0.00 0.00 33 992.4
20210618153055 90 20 2.0 4.0 0.00 0.00 0.00 32 992.3
20210618152957 90 28 2.0 4.0 0.00 0.00 0.00 32 992.3
20210618152855 90 46 2.0 6.0 0.00 0.00 0.00 34 992.3
20210618152756 90 51 2.0 6.0 0.00 0.00 0.00 34 992.3
20210618152655 90 58 1.0 6.0 0.00 0.00 0.00 32 992.2
20210618152555 89 54 2.0 6.0 0.00 0.00 0.00 35 992.2
20210618152455 89 48 1.0 6.0 0.00 0.00 0.00 34 992.3
20210618152356 89 39 1.0 6.0 0.00 0.00 0.00 34 992.3
20210618152256 89 36 1.0 6.0 0.00 0.00 0.00 34 992.4
20210618152155 89 38 2.0 6.0 0.00 0.00 0.00 35 992.3
20210618152055 89 43 2.0 6.0 0.00 0.00 0.00 35 992.4
20210618151955 89 36 2.0 6.0 0.00 0.00 0.00 34 992.3
20210618151856 89 26 4.0 6.0 0.00 0.00 0.00 35 992.4
20210618151755 89 20 2.0 6.0 0.00 0.00 0.00 33 992.3
20210618151655 89 15 2.0 6.0 0.00 0.00 0.00 33 992.4
20210618151555 90 15 1.0 6.0 0.00 0.00 0.00 34 992.3
20210618151457 90 16 2.0 6.0 0.00 0.00 0.00 34 992.4
20210618151356 90 24 2.0 6.0 0.00 0.00 0.00 34 992.3
20210618151256 90 22 2.0 6.0 0.00 0.00 0.00 34 992.4
20210618151155 90 15 2.0 6.0 0.00 0.00 0.00 34 992.3
20210618151055 90 359 2.0 6.0 0.00 0.00 0.00 34 992.4
20210618150955 90 1 1.0 4.0 0.00 0.00 0.00 33 992.3
20210618150856 90 1 0.0 4.0 0.00 0.00 0.00 34 992.6
20210618150755 90 1 1.0 4.0 0.00 0.00 0.00 34 992.4
20210618150655 90 1 2.0 4.0 0.00 0.00 0.00 35 992.3
20210618150555 90 1 1.0 4.0 0.00 0.00 0.00 33 992.4
20210618150456 90 6 1.0 4.0 0.00 0.00 0.00 33 992.4
20210618150356 90 16 1.0 4.0 0.00 0.00 0.00 34 992.5
20210618150255 89 26 1.0 4.0 0.00 0.00 0.00 34 992.6
20210618150155 89 35 2.0 4.0 0.00 0.00 0.00 34 992.6
20210618150055 89 49 2.0 4.0 0.00 0.00 0.00 33 992.4
20210618145957 90 56 2.0 4.0 0.00 0.00 0.00 34 992.5
20210618145855 90 59 0.0 4.0 0.00 0.00 0.00 33 992.5
20210618145756 90 63 1.0 6.0 0.00 0.00 0.00 32 992.6
20210618145656 89 68 2.0 6.0 0.00 0.00 0.00 33 992.9
20210618145555 89 74 2.0 6.0 0.00 0.00 0.00 34 992.6
20210618145455 89 79 3.0 6.0 0.00 0.00 0.00 34 992.5
20210618145356 89 76 2.0 6.0 0.00 0.00 0.00 34 992.7
20210618145256 89 73 2.0 6.0 0.00 0.00 0.00 34 992.4
20210618145155 89 70 2.0 6.0 0.00 0.00 0.00 33 992.6
20210618145055 89 57 1.0 6.0 0.00 0.00 0.00 34 992.6
20210618144955 88 54 1.0 6.0 0.00 0.00 0.00 35 992.5
20210618144856 88 57 4.0 6.0 0.00 0.00 0.00 34 992.6
20210618144755 88 50 4.0 6.0 0.00 0.00 0.00 34 992.5
20210618144655 89 23 0.0 2.0 0.00 0.00 0.00 34 992.4
20210618144555 90 29 0.0 2.0 0.00 0.00 0.00 34 992.5
20210618144457 90 31 0.0 2.0 0.00 0.00 0.00 33 992.5
20210618144355 91 33 0.0 2.0 0.00 0.00 0.00 32 992.6
20210618144256 91 30 0.0 2.0 0.00 0.00 0.00 32 992.8
20210618144156 90 28 0.0 2.0 0.00 0.00 0.00 32 992.4
20210618144055 90 28 0.0 2.0 0.00 0.00 0.00 31 992.7
20210618143955 89 28 0.0 2.0 0.00 0.00 0.00 33 992.6
20210618143856 89 28 0.0 2.0 0.00 0.00 0.00 35 992.6
20210618143756 89 29 1.0 2.0 0.00 0.00 0.00 33 992.5
20210618143655 89 33 0.0 2.0 0.00 0.00 0.00 33 992.5
20210618143555 89 7 0.0 2.0 0.00 0.00 0.00 33 992.8
20210618143456 89 7 0.0 2.0 0.00 0.00 0.00 33 992.6
20210618143356 88 19 1.0 4.0 0.00 0.00 0.00 34 992.8
20210618143255 89 15 1.0 4.0 0.00 0.00 0.00 33 992.7
20210618143155 90 17 0.0 4.0 0.00 0.00 0.00 34 992.6
20210618143055 89 25 0.0 4.0 0.00 0.00 0.00 34 992.7
20210618142957 89 28 0.0 8.0 0.00 0.00 0.00 32 992.7
20210618142856 89 31 0.0 9.0 0.00 0.00 0.00 32 992.7
20210618142756 89 38 0.0 9.0 0.00 0.00 0.00 34 992.7
20210618142655 89 42 0.0 9.0 0.00 0.00 0.00 33 992.8
20210618142555 89 47 0.0 9.0 0.00 0.00 0.00 35 992.8
20210618142456 89 46 1.0 9.0 0.00 0.00 0.00 36 992.4
20210618142356 89 44 0.0 9.0 0.00 0.00 0.00 35 992.7
20210618142255 88 48 1.0 9.0 0.00 0.00 0.00 34 992.8
20210618142155 88 49 1.0 9.0 0.00 0.00 0.00 35 992.9
20210618142055 87 43 2.0 9.0 0.00 0.00 0.00 33 992.8
20210618141956 87 42 2.0 9.0 0.00 0.00 0.00 34 992.9
20210618141855 88 40 3.0 6.0 0.00 0.00 0.00 33 992.8
20210618141755 88 35 3.0 6.0 0.00 0.00 0.00 33 992.6
20210618141655 88 32 3.0 6.0 0.00 0.00 0.00 33 992.8
20210618141556 89 34 2.0 6.0 0.00 0.00 0.00 33 992.8
20210618141457 90 43 2.0 6.0 0.00 0.00 0.00 32 992.8
20210618141356 89 52 2.0 6.0 0.00 0.00 0.00 32 992.9
20210618141256 89 51 1.0 6.0 0.00 0.00 0.00 32 992.9
20210618141155 89 52 2.0 6.0 0.00 0.00 0.00 32 992.8
20210618141055 89 58 2.0 6.0 0.00 0.00 0.00 32 993.1
20210618140955 89 58 2.0 6.0 0.00 0.00 0.00 33 992.6
20210618140856 88 62 4.0 6.0 0.00 0.00 0.00 33 992.8
20210618140756 89 61 2.0 6.0 0.00 0.00 0.00 34 992.8
20210618140655 88 63 3.0 8.0 0.00 0.00 0.00 31 992.9
20210618140556 89 64 3.0 8.0 0.00 0.00 0.00 32 993.1
20210618140456 89 67 2.0 8.0 0.00 0.00 0.00 32 992.8
20210618140355 89 65 2.0 8.0 0.00 0.00 0.00 32 992.8
20210618140255 89 68 2.0 8.0 0.00 0.00 0.00 31 992.9
20210618140155 89 70 2.0 8.0 0.00 0.00 0.00 31 992.8
20210618140056 89 71 2.0 8.0 0.00 0.00 0.00 31 992.9
20210618135957 89 77 3.0 8.0 0.00 0.00 0.00 32 993.1
20210618135856 89 78 3.0 8.0 0.00 0.00 0.00 33 992.8
20210618135756 89 81 3.0 8.0 0.00 0.00 0.00 33 992.8
20210618135655 89 83 1.0 7.0 0.00 0.00 0.00 33 992.8
20210618135555 88 80 4.0 7.0 0.00 0.00 0.00 32 993.1
20210618135456 89 64 4.0 7.0 0.00 0.00 0.00 32 993.0
20210618135356 89 62 1.0 7.0 0.00 0.00 0.00 31 993.0
20210618135255 89 54 0.0 7.0 0.00 0.00 0.00 32 993.0
20210618135155 89 52 2.0 7.0 0.00 0.00 0.00 31 992.8
20210618135055 89 49 2.0 7.0 0.00 0.00 0.00 33 993.1
20210618134956 89 41 1.0 7.0 0.00 0.00 0.00 32 993.1
20210618134855 89 37 1.0 7.0 0.00 0.00 0.00 32 993.0
20210618134755 88 37 0.0 7.0 0.00 0.00 0.00 33 992.9
20210618134655 88 40 1.0 7.0 0.00 0.00 0.00 32 992.9
20210618134556 88 40 3.0 7.0 0.00 0.00 0.00 31 992.9
20210618134457 88 45 3.0 7.0 0.00 0.00 0.00 31 993.0
20210618134355 88 50 1.0 8.0 0.00 0.00 0.00 32 993.1
20210618134256 88 54 2.0 8.0 0.00 0.00 0.00 31 992.8
20210618134156 88 52 0.0 8.0 0.00 0.00 0.00 33 993.0
20210618134055 87 51 2.0 8.0 0.00 0.00 0.00 33 993.0
20210618133955 87 53 1.0 8.0 0.00 0.00 0.00 33 993.2
20210618133856 87 57 2.0 8.0 0.00 0.00 0.00 33 993.0
20210618133756 89 60 0.0 8.0 0.00 0.00 0.00 32 993.0
20210618133655 89 58 1.0 8.0 0.00 0.00 0.00 32 993.2
20210618133555 88 55 1.0 8.0 0.00 0.00 0.00 32 993.1
20210618133455 88 53 2.0 8.0 0.00 0.00 0.00 33 993.0
20210618133356 87 42 4.0 8.0 0.00 0.00 0.00 33 993.1
20210618133255 88 33 4.0 8.0 0.00 0.00 0.00 32 993.0
20210618133155 88 30 5.0 8.0 0.00 0.00 0.00 31 993.2
20210618133056 90 26 1.0 6.0 0.00 0.00 0.00 31 993.3
20210618132957 90 13 0.0 6.0 0.00 0.00 0.00 30 993.2
20210618132856 90 12 0.0 6.0 0.00 0.00 0.00 31 993.2
20210618132756 89 16 0.0 6.0 0.00 0.00 0.00 30 993.0
20210618132656 89 21 0.0 6.0 0.00 0.00 0.00 30 993.1
20210618132555 89 22 0.0 6.0 0.00 0.00 0.00 32 993.1
20210618132455 89 22 1.0 6.0 0.00 0.00 0.00 32 993.1
20210618132356 89 21 4.0 6.0 0.00 0.00 0.00 31 992.9
20210618132256 89 18 2.0 4.0 0.00 0.00 0.00 32 993.1
20210618132156 89 10 1.0 4.0 0.00 0.00 0.00 33 993.2
20210618132055 89 18 2.0 6.0 0.00 0.00 0.00 33 993.1
20210618131955 89 41 2.0 6.0 0.00 0.00 0.00 33 993.3
20210618131856 89 56 3.0 6.0 0.00 0.00 0.00 33 993.1
20210618131756 89 53 0.0 6.0 0.00 0.00 0.00 32 993.3
20210618131655 89 36 0.0 6.0 0.00 0.00 0.00 35 993.2
20210618131555 89 35 0.0 6.0 0.00 0.00 0.00 35 993.4
20210618131457 88 37 0.0 6.0 0.00 0.00 0.00 33 993.3
20210618131355 87 31 0.0 6.0 0.00 0.00 0.00 33 993.2
20210618131256 87 25 0.0 6.0 0.00 0.00 0.00 32 993.2
20210618131156 87 25 0.0 6.0 0.00 0.00 0.00 32 993.2
20210618131055 87 20 3.0 6.0 0.00 0.00 0.00 32 993.2
20210618130955 88 8 2.0 6.0 0.00 0.00 0.00 31 993.4
20210618130856 88 354 2.0 6.0 0.00 0.00 0.00 34 993.3
20210618130756 88 351 2.0 6.0 0.00 0.00 0.00 32 993.1
20210618130656 88 355 2.0 6.0 0.00 0.00 0.00 34 993.4
20210618130555 89 350 3.0 6.0 0.00 0.00 0.00 35 993.2
20210618130456 88 340 2.0 6.0 0.00 0.00 0.00 34 993.2
20210618130356 88 341 2.0 6.0 0.00 0.00 0.00 34 993.1
20210618130256 87 347 4.0 6.0 0.00 0.00 0.00 35 993.3
20210618130155 88 354 1.0 8.0 0.00 0.00 0.00 32 993.3
20210618130055 88 7 2.0 8.0 0.00 0.00 0.00 32 993.4
20210618125957 88 14 2.0 8.0 0.00 0.00 0.00 31 993.3
20210618125856 88 26 2.0 8.0 0.00 0.00 0.00 33 993.3
20210618125756 88 35 0.0 8.0 0.00 0.00 0.00 34 993.3
20210618125655 88 38 0.0 8.0 0.00 0.00 0.00 34 993.3
20210618125555 89 38 1.0 8.0 0.00 0.00 0.00 35 993.3
20210618125456 89 44 1.0 8.0 0.00 0.00 0.00 35 993.4
20210618125356 88 45 0.0 8.0 0.00 0.00 0.00 36 993.2
20210618125255 87 47 2.0 8.0 0.00 0.00 0.00 36 993.3
20210618125155 87 48 3.0 8.0 0.00 0.00 0.00 34 993.3
20210618125055 88 45 2.0 7.0 0.00 0.00 0.00 35 993.3
20210618124956 87 46 1.0 7.0 0.00 0.00 0.00 35 993.1
20210618124856 87 42 1.0 7.0 0.00 0.00 0.00 35 993.3
20210618124755 87 45 2.0 7.0 0.00 0.00 0.00 36 993.2
20210618124655 87 54 2.0 7.0 0.00 0.00 0.00 34 993.4
20210618124556 86 55 0.0 6.0 0.00 0.00 0.00 36 993.3
20210618124457 87 56 1.0 6.0 0.00 0.00 0.00 35 993.3
20210618124355 88 60 1.0 6.0 0.00 0.00 0.00 36 993.4
20210618124256 88 50 4.0 8.0 0.00 0.00 0.00 36 993.4
20210618124156 88 47 1.0 8.0 0.00 0.00 0.00 37 993.3
20210618124055 88 45 0.0 8.0 0.00 0.00 0.00 37 993.4
20210618123955 88 49 1.0 8.0 0.00 0.00 0.00 37 993.4
20210618123856 87 48 3.0 8.0 0.00 0.00 0.00 37 993.4
20210618123756 88 38 2.0 8.0 0.00 0.00 0.00 37 993.3
20210618123656 88 23 0.0 8.0 0.00 0.00 0.00 38 993.2
20210618123555 88 20 0.0 8.0 0.00 0.00 0.00 37 993.3
20210618123456 87 9 3.0 8.0 0.00 0.00 0.00 37 993.4
20210618123356 87 356 4.0 8.0 0.00 0.00 0.00 37 993.2
20210618123256 88 351 3.0 7.0 0.00 0.00 0.00 36 993.2
20210618123155 89 357 3.0 6.0 0.00 0.00 0.00 35 993.3
20210618123055 88 11 2.0 6.0 0.00 0.00 0.00 37 993.3
20210618122957 88 3 2.0 6.0 0.00 0.00 0.00 37 993.2
20210618122855 88 10 1.0 6.0 0.00 0.00 0.00 37 993.2
20210618122755 88 14 2.0 6.0 0.00 0.00 0.00 38 993.4
20210618122656 88 22 0.0 6.0 0.00 0.00 0.00 37 993.1
20210618122556 87 21 2.0 6.0 0.00 0.00 0.00 37 993.2
20210618122455 87 29 1.0 6.0 0.00 0.00 0.00 39 993.2
20210618122355 87 26 1.0 6.0 0.00 0.00 0.00 40 993.4
20210618122256 87 14 1.0 6.0 0.00 0.00 0.00 39 993.3
20210618122156 87 13 3.0 6.0 0.00 0.00 0.00 38 993.4
20210618122056 88 9 1.0 6.0 0.00 0.00 0.00 39 993.2
20210618121955 87 357 2.0 6.0 0.00 0.00 0.00 38 993.3
20210618121855 88 345 0.0 6.0 0.00 0.00 0.00 38 993.4
20210618121755 88 339 0.0 6.0 0.00 0.00 0.00 37 993.2
20210618121656 89 340 2.0 6.0 0.00 0.00 0.00 36 993.3
20210618121556 89 2 2.0 7.0 0.00 0.00 0.00 37 993.3
20210618121457 89 18 1.0 7.0 0.00 0.00 0.00 37 993.2
20210618121356 88 15 2.0 7.0 0.00 0.00 0.00 36 993.3
20210618121255 87 21 2.0 7.0 0.00 0.00 0.00 36 993.2
20210618121155 88 18 2.0 7.0 0.00 0.00 0.00 37 993.1
20210618121056 88 12 3.0 7.0 0.00 0.00 0.00 36 993.3
20210618120956 87 14 2.0 7.0 0.00 0.00 0.00 36 993.3
20210618120856 87 29 4.0 7.0 0.00 0.00 0.00 35 993.4
20210618120755 88 49 1.0 7.0 0.00 0.00 0.00 36 993.4
20210618120656 87 54 2.0 7.0 0.00 0.00 0.00 36 993.3
20210618120556 88 52 3.0 6.0 0.00 0.00 0.00 36 993.4
20210618120456 88 45 2.0 6.0 0.00 0.00 0.00 37 993.4
20210618120355 88 59 2.0 7.0 0.00 0.00 0.00 37 993.4
20210618120255 88 62 2.0 7.0 0.00 0.00 0.00 38 993.4
20210618120156 88 69 2.0 7.0 0.00 0.00 0.00 39 993.3
20210618120056 88 78 1.0 7.0 0.00 0.00 0.00 36 993.5
20210618115957 87 83 2.0 7.0 0.00 0.00 0.00 40 993.4
20210618115856 87 79 2.0 7.0 0.00 0.00 0.00 40 993.1
20210618115755 87 77 2.0 7.0 0.00 0.00 0.00 39 993.3
20210618115655 87 75 1.0 7.0 0.00 0.00 0.00 40 993.3
20210618115556 87 73 0.0 7.0 0.00 0.00 0.00 39 993.3
20210618115456 87 75 2.0 7.0 0.00 0.00 0.00 39 993.3
20210618115355 86 74 0.0 6.0 0.00 0.00 0.00 41 993.4
20210618115255 86 77 1.0 6.0 0.00 0.00 0.00 40 993.2
20210618115156 86 77 0.0 6.0 0.00 0.00 0.00 41 993.3
20210618115056 86 77 2.0 6.0 0.00 0.00 0.00 41 993.5
20210618114955 86 79 2.0 6.0 0.00 0.00 0.00 41 993.5
20210618114855 86 79 2.0 7.0 0.00 0.00 0.00 41 993.3
20210618114756 86 73 2.0 7.0 0.00 0.00 0.00 40 993.5
20210618114656 86 73 1.0 7.0 0.00 0.00 0.00 39 993.4
20210618114556 86 71 2.0 7.0 0.00 0.00 0.00 36 993.4
20210618114457 86 66 2.0 7.0 0.00 0.00 0.00 36 993.5
20210618114356 86 64 2.0 7.0 0.00 0.00 0.00 36 993.5
20210618114256 86 64 1.0 7.0 0.00 0.00 0.00 38 993.4
20210618114155 86 63 2.0 7.0 0.00 0.00 0.00 41 993.4
20210618114056 85 63 2.0 7.0 0.00 0.00 0.00 39 993.5
20210618113956 85 53 3.0 7.0 0.00 0.00 0.00 41 993.2
20210618113856 85 55 4.0 7.0 0.00 0.00 0.00 40 993.3
20210618113755 85 57 3.0 6.0 0.00 0.00 0.00 40 993.4
20210618113655 85 51 0.0 6.0 0.00 0.00 0.00 40 993.7
20210618113556 85 51 1.0 8.0 0.00 0.00 0.00 38 993.5
20210618113456 85 51 4.0 9.0 0.00 0.00 0.00 37 993.4
20210618113356 86 47 1.0 9.0 0.00 0.00 0.00 39 993.4
20210618113255 86 44 0.0 9.0 0.00 0.00 0.00 40 993.4
20210618113155 86 41 0.0 9.0 0.00 0.00 0.00 39 993.4
20210618113056 86 39 1.0 9.0 0.00 0.00 0.00 41 993.4
20210618112957 86 42 4.0 9.0 0.00 0.00 0.00 39 993.6
20210618112856 86 39 1.0 9.0 0.00 0.00 0.00 38 993.4
20210618112756 86 38 2.0 9.0 0.00 0.00 0.00 36 993.3
20210618112656 86 41 2.0 9.0 0.00 0.00 0.00 36 993.3
20210618112555 86 46 6.0 9.0 0.00 0.00 0.00 36 993.2
20210618112456 87 54 2.0 7.0 0.00 0.00 0.00 36 993.3
20210618112356 88 62 0.0 6.0 0.00 0.00 0.00 41 993.2
20210618112256 87 63 0.0 6.0 0.00 0.00 0.00 39 993.5
20210618112155 87 65 1.0 6.0 0.00 0.00 0.00 42 993.3
20210618112056 86 67 3.0 6.0 0.00 0.00 0.00 41 993.1
20210618111956 86 70 0.0 6.0 0.00 0.00 0.00 42 993.3
20210618111856 86 71 2.0 6.0 0.00 0.00 0.00 41 993.4
20210618111755 85 80 2.0 4.0 0.00 0.00 0.00 41 993.3
20210618111656 86 79 4.0 4.0 0.00 0.00 0.00 41 993.5
20210618111556 87 73 2.0 4.0 0.00 0.00 0.00 41 993.4
20210618111457 87 58 2.0 4.0 0.00 0.00 0.00 41 993.3
20210618111356 86 56 0.0 4.0 0.00 0.00 0.00 42 993.4
20210618111256 86 48 1.0 6.0 0.00 0.00 0.00 42 993.5
20210618111156 86 46 0.0 6.0 0.00 0.00 0.00 41 993.2
20210618111055 85 46 0.0 6.0 0.00 0.00 0.00 41 993.4
20210618110956 86 46 2.0 6.0 0.00 0.00 0.00 40 993.3
20210618110856 87 46 1.0 6.0 0.00 0.00 0.00 41 993.4
20210618110755 87 47 0.0 6.0 0.00 0.00 0.00 41 993.5
20210618110655 86 52 1.0 6.0 0.00 0.00 0.00 41 993.4
20210618110556 86 53 2.0 6.0 0.00 0.00 0.00 42 993.4
20210618110456 86 51 4.0 6.0 0.00 0.00 0.00 42 993.4
20210618110356 86 49 2.0 6.0 0.00 0.00 0.00 42 993.2
20210618110255 86 55 0.0 6.0 0.00 0.00 0.00 41 993.5
20210618110156 86 57 0.0 6.0 0.00 0.00 0.00 41 993.2
20210618110056 86 55 0.0 6.0 0.00 0.00 0.00 42 993.4
20210618105958 85 55 0.0 6.0 0.00 0.00 0.00 41 993.5
20210618105856 86 54 2.0 7.0 0.00 0.00 0.00 39 993.5
20210618105756 87 51 2.0 9.0 0.00 0.00 0.00 37 993.7
20210618105655 87 47 2.0 9.0 0.00 0.00 0.00 37 993.5
20210618105556 86 45 0.0 9.0 0.00 0.00 0.00 38 993.4
20210618105456 85 46 2.0 9.0 0.00 0.00 0.00 39 993.5
20210618105356 85 44 0.0 9.0 0.00 0.00 0.00 40 993.5
20210618105255 85 38 0.0 9.0 0.00 0.00 0.00 39 993.6
20210618105155 84 41 0.0 9.0 0.00 0.00 0.00 38 993.4
20210618105056 84 46 2.0 9.0 0.00 0.00 0.00 39 993.6
20210618104956 84 44 4.0 9.0 0.00 0.00 0.00 38 993.7
20210618104856 84 43 5.0 9.0 0.00 0.00 0.00 38 993.6
20210618104756 85 39 5.0 9.0 0.00 0.00 0.00 40 993.5
20210618104656 86 33 0.0 7.0 0.00 0.00 0.00 39 993.6
20210618104556 86 31 0.0 7.0 0.00 0.00 0.00 39 993.4
20210618104457 86 31 0.0 7.0 0.00 0.00 0.00 38 993.7
20210618104356 85 34 1.0 7.0 0.00 0.00 0.00 37 993.3
20210618104256 85 41 2.0 7.0 0.00 0.00 0.00 38 993.7
20210618104155 85 40 4.0 7.0 0.00 0.00 0.00 40 993.6
20210618104055 86 35 4.0 7.0 0.00 0.00 0.00 40 993.6
20210618103956 85 34 2.0 7.0 0.00 0.00 0.00 43 993.4
20210618103856 85 34 3.0 7.0 0.00 0.00 0.00 43 993.6
20210618103755 86 37 2.0 7.0 0.00 0.00 0.00 42 993.4
20210618103656 86 47 2.0 7.0 0.00 0.00 0.00 45 993.7
20210618103556 85 57 3.0 7.0 0.00 0.00 0.00 45 993.6
20210618103456 85 64 2.0 6.0 0.00 0.00 0.00 46 993.6
20210618103355 85 63 3.0 6.0 0.00 0.00 0.00 45 993.5
20210618103255 85 54 2.0 6.0 0.00 0.00 0.00 45 993.8
20210618103156 86 45 0.0 6.0 0.00 0.00 0.00 43 993.5
20210618103056 85 48 0.0 6.0 0.00 0.00 0.00 42 993.4
20210618102957 85 47 0.0 6.0 0.00 0.00 0.00 42 993.6
20210618102856 84 46 0.0 6.0 0.00 0.00 0.00 41 993.6
20210618102756 84 46 0.0 6.0 0.00 0.00 0.00 41 993.6
20210618102656 84 44 0.0 6.0 0.00 0.00 0.00 40 993.7
20210618102555 83 43 2.0 6.0 0.00 0.00 0.00 45 993.7
20210618102455 83 45 0.0 4.0 0.00 0.00 0.00 44 993.6
20210618102356 83 50 2.0 4.0 0.00 0.00 0.00 45 993.6
20210618102256 84 53 1.0 4.0 0.00 0.00 0.00 46 993.6
20210618102156 84 58 0.0 4.0 0.00 0.00 0.00 46 993.6
20210618102055 84 56 2.0 4.0 0.00 0.00 0.00 47 993.5
20210618101955 84 57 2.0 4.0 0.00 0.00 0.00 46 993.5
20210618101856 85 58 2.0 4.0 0.00 0.00 0.00 46 993.7
20210618101756 85 59 0.0 4.0 0.00 0.00 0.00 47 994.0
20210618101656 84 63 0.0 4.0 0.00 0.00 0.00 47 993.6
20210618101556 84 64 0.0 4.0 0.00 0.00 0.00 47 993.6
20210618101457 84 63 1.0 4.0 0.00 0.00 0.00 48 993.8
20210618101356 84 64 1.0 4.0 0.00 0.00 0.00 49 993.7
20210618101255 83 66 0.0 4.0 0.00 0.00 0.00 50 993.6
20210618101156 83 68 2.0 4.0 0.00 0.00 0.00 48 993.6
20210618101056 83 70 2.0 4.0 0.00 0.00 0.00 48 993.6
20210618100956 83 70 2.0 4.0 0.00 0.00 0.00 49 993.5
20210618100855 83 71 2.0 4.0 0.00 0.00 0.00 49 993.4
20210618100756 83 69 2.0 4.0 0.00 0.00 0.00 50 993.8
20210618100656 83 65 2.0 4.0 0.00 0.00 0.00 49 993.9
20210618100556 84 60 0.0 4.0 0.00 0.00 0.00 51 993.7
20210618100455 83 58 0.0 4.0 0.00 0.00 0.00 50 993.9
20210618100355 84 55 1.0 4.0 0.00 0.00 0.00 49 993.8
20210618100256 85 62 1.0 6.0 0.00 0.00 0.00 50 993.8
20210618100156 84 64 4.0 6.0 0.00 0.00 0.00 51 993.8
20210618100055 84 70 3.0 6.0 0.00 0.00 0.00 50 993.9
20210618095957 85 85 2.0 6.0 0.00 0.00 0.00 50 993.7
20210618095855 85 90 2.0 6.0 0.00 0.00 0.00 49 993.6
20210618095756 85 94 0.0 6.0 0.00 0.00 0.00 51 993.6
20210618095656 84 92 0.0 6.0 0.00 0.00 0.00 51 993.6
20210618095556 84 88 0.0 6.0 0.00 0.00 0.00 50 993.6
20210618095455 83 86 0.0 6.0 0.00 0.00 0.00 52 993.5
20210618095356 83 84 2.0 6.0 0.00 0.00 0.00 51 993.6
20210618095256 83 80 1.0 4.0 0.00 0.00 0.00 52 993.6
20210618095156 83 78 2.0 4.0 0.00 0.00 0.00 52 993.7
20210618095055 82 79 3.0 4.0 0.00 0.00 0.00 53 993.6
20210618094956 82 78 1.0 4.0 0.00 0.00 0.00 52 993.6
20210618094856 83 79 1.0 4.0 0.00 0.00 0.00 52 993.6
20210618094756 82 79 1.0 4.0 0.00 0.00 0.00 52 993.5
20210618094656 82 81 2.0 4.0 0.00 0.00 0.00 52 993.8
20210618094555 83 86 2.0 4.0 0.00 0.00 0.00 51 993.8
20210618094457 83 88 3.0 4.0 0.00 0.00 0.00 51 993.7
20210618094355 84 88 2.0 4.0 0.00 0.00 0.00 51 993.8
20210618094256 84 85 3.0 4.0 0.00 0.00 0.00 50 993.8
20210618094156 83 88 2.0 4.0 0.00 0.00 0.00 52 993.8
20210618094056 83 80 2.0 4.0 0.00 0.00 0.00 52 993.9
20210618093955 83 61 2.0 4.0 0.00 0.00 0.00 52 993.9
20210618093856 83 42 2.0 4.0 0.00 0.00 0.00 52 993.8
20210618093756 83 26 2.0 4.0 0.00 0.00 0.00 52 993.5
20210618093656 83 2 3.0 4.0 0.00 0.00 0.00 51 993.6
20210618093555 84 345 2.0 4.0 0.00 0.00 0.00 51 993.8
20210618093456 85 346 2.0 4.0 0.00 0.00 0.00 50 993.7
20210618093356 85 347 2.0 4.0 0.00 0.00 0.00 48 993.7
20210618093256 85 1 0.0 4.0 0.00 0.00 0.00 48 993.5
20210618093155 85 7 0.0 4.0 0.00 0.00 0.00 48 994.1
20210618093056 84 15 0.0 4.0 0.00 0.00 0.00 48 993.8
20210618092957 85 20 1.0 6.0 0.00 0.00 0.00 48 993.9
20210618092855 85 26 2.0 6.0 0.00 0.00 0.00 50 993.7
20210618092756 85 30 1.0 6.0 0.00 0.00 0.00 49 993.9
20210618092656 84 34 1.0 6.0 0.00 0.00 0.00 48 993.8
20210618092556 83 40 1.0 6.0 0.00 0.00 0.00 49 993.7
20210618092455 83 49 2.0 6.0 0.00 0.00 0.00 51 993.7
20210618092356 83 57 2.0 6.0 0.00 0.00 0.00 50 993.5
20210618092256 82 57 1.0 6.0 0.00 0.00 0.00 50 993.8
20210618092156 83 58 2.0 6.0 0.00 0.00 0.00 50 993.7
20210618092055 83 61 4.0 6.0 0.00 0.00 0.00 51 993.8
20210618091956 83 61 2.0 6.0 0.00 0.00 0.00 50 993.7
20210618091856 83 65 1.0 4.0 0.00 0.00 0.00 49 993.7
20210618091756 83 68 2.0 4.0 0.00 0.00 0.00 50 993.8
20210618091656 83 68 1.0 4.0 0.00 0.00 0.00 51 993.9
20210618091555 82 65 2.0 4.0 0.00 0.00 0.00 51 993.6
20210618091457 82 60 2.0 4.0 0.00 0.00 0.00 51 993.6
20210618091356 83 51 0.0 6.0 0.00 0.00 0.00 51 993.7
20210618091255 82 52 1.0 6.0 0.00 0.00 0.00 53 993.5
20210618091156 82 53 0.0 6.0 0.00 0.00 0.00 52 993.7
20210618091056 82 56 1.0 6.0 0.00 0.00 0.00 51 993.7
20210618090956 82 58 2.0 6.0 0.00 0.00 0.00 51 993.5
20210618090855 82 57 2.0 6.0 0.00 0.00 0.00 51 993.9
20210618090756 82 56 2.0 6.0 0.00 0.00 0.00 51 993.8
20210618090656 83 55 0.0 6.0 0.00 0.00 0.00 51 993.5
20210618090556 82 58 2.0 6.0 0.00 0.00 0.00 51 993.6
20210618090455 82 61 4.0 6.0 0.00 0.00 0.00 52 993.7
20210618090356 82 67 2.0 6.0 0.00 0.00 0.00 52 993.8
20210618090256 82 68 3.0 6.0 0.00 0.00 0.00 51 993.7
20210618090156 82 68 2.0 6.0 0.00 0.00 0.00 51 993.7
20210618090055 83 62 0.0 4.0 0.00 0.00 0.00 50 994.0
20210618085957 82 54 2.0 4.0 0.00 0.00 0.00 51 993.6
20210618085855 82 55 1.0 4.0 0.00 0.00 0.00 51 993.6
20210618085756 83 54 1.0 4.0 0.00 0.00 0.00 50 993.7
20210618085656 83 49 1.0 4.0 0.00 0.00 0.00 50 993.7
20210618085555 83 38 1.0 4.0 0.00 0.00 0.00 50 993.6
20210618085456 83 36 1.0 4.0 0.00 0.00 0.00 49 993.6
20210618085356 82 33 2.0 4.0 0.00 0.00 0.00 53 993.7
20210618085256 82 27 2.0 4.0 0.00 0.00 0.00 53 993.6
20210618085156 82 22 1.0 4.0 0.00 0.00 0.00 52 993.7
20210618085056 82 22 3.0 4.0 0.00 0.00 0.00 53 993.8
20210618084955 82 22 3.0 4.0 0.00 0.00 0.00 51 993.8
20210618084856 83 359 2.0 4.0 0.00 0.00 0.00 51 993.4
20210618084756 83 336 1.0 4.0 0.00 0.00 0.00 50 993.6
20210618084656 83 339 2.0 4.0 0.00 0.00 0.00 52 993.6
20210618084556 81 63 0.0 2.0 0.00 0.00 0.00 52 993.6
20210618084457 81 57 0.0 2.0 0.00 0.00 0.00 52 993.7
20210618084355 81 57 0.0 2.0 0.00 0.00 0.00 52 993.9
20210618084256 81 57 0.0 2.0 0.00 0.00 0.00 52 993.8
20210618084156 81 57 0.0 2.0 0.00 0.00 0.00 52 993.7
20210618084056 82 61 0.0 2.0 0.00 0.00 0.00 52 993.6
20210618083955 82 54 0.0 4.0 0.00 0.00 0.00 53 993.6
20210618083856 82 52 0.0 4.0 0.00 0.00 0.00 51 993.7
20210618083756 81 52 0.0 4.0 0.00 0.00 0.00 54 993.5
20210618083656 81 49 0.0 4.0 0.00 0.00 0.00 53 993.7
20210618083556 81 50 0.0 4.0 0.00 0.00 0.00 53 993.7
20210618083455 81 47 0.0 4.0 0.00 0.00 0.00 52 993.8
20210618083356 81 47 0.0 4.0 0.00 0.00 0.00 53 993.6
20210618083256 81 47 0.0 4.0 0.00 0.00 0.00 53 993.6
20210618083156 80 47 0.0 4.0 0.00 0.00 0.00 53 993.7
20210618083056 80 41 0.0 4.0 0.00 0.00 0.00 53 993.7
20210618082957 81 242 2.0 4.0 0.00 0.00 0.00 52 993.7
20210618082855 82 242 0.0 4.0 0.00 0.00 0.00 52 993.8
20210618082756 82 244 0.0 4.0 0.00 0.00 0.00 51 993.6
20210618082656 82 254 0.0 4.0 0.00 0.00 0.00 51 993.7
20210618082556 82 276 0.0 4.0 0.00 0.00 0.00 52 993.8
20210618082455 81 327 0.0 4.0 0.00 0.00 0.00 51 993.7
20210618082355 81 342 0.0 4.0 0.00 0.00 0.00 51 993.7
20210618082256 81 350 0.0 4.0 0.00 0.00 0.00 50 993.8
20210618082156 82 4 0.0 4.0 0.00 0.00 0.00 50 993.6
20210618082056 82 11 2.0 4.0 0.00 0.00 0.00 51 993.7
20210618081956 82 19 2.0 4.0 0.00 0.00 0.00 50 993.8
20210618081856 83 10 0.0 4.0 0.00 0.00 0.00 51 993.8
20210618081756 82 351 1.0 4.0 0.00 0.00 0.00 51 993.7
20210618081656 82 342 2.0 4.0 0.00 0.00 0.00 51 993.6
20210618081556 82 335 2.0 4.0 0.00 0.00 0.00 50 993.9
20210618081457 82 325 1.0 4.0 0.00 0.00 0.00 51 993.8
20210618081356 82 311 1.0 4.0 0.00 0.00 0.00 50 993.8
20210618081255 82 302 1.0 4.0 0.00 0.00 0.00 51 993.8
20210618081156 81 293 0.0 4.0 0.00 0.00 0.00 53 993.8
20210618081056 81 300 1.0 4.0 0.00 0.00 0.00 52 993.8
20210618080956 81 319 2.0 6.0 0.00 0.00 0.00 51 993.9
20210618080855 81 340 2.0 6.0 0.00 0.00 0.00 51 993.7
20210618080755 81 358 1.0 6.0 0.00 0.00 0.00 51 993.8
20210618080656 82 356 0.0 6.0 0.00 0.00 0.00 51 993.9
20210618080556 81 351 0.0 6.0 0.00 0.00 0.00 53 993.7
20210618080456 80 346 0.0 6.0 0.00 0.00 0.00 53 993.8
20210618080356 80 346 0.0 6.0 0.00 0.00 0.00 52 993.6
20210618080255 80 348 1.0 6.0 0.00 0.00 0.00 52 993.8
20210618080156 80 346 2.0 6.0 0.00 0.00 0.00 53 993.9
20210618080056 80 335 3.0 6.0 0.00 0.00 0.00 53 993.9
20210618075958 81 330 2.0 4.0 0.00 0.00 0.00 51 993.8
20210618075856 82 337 1.0 4.0 0.00 0.00 0.00 52 994.1
20210618075756 81 345 2.0 4.0 0.00 0.00 0.00 50 993.9
20210618075656 81 351 1.0 4.0 0.00 0.00 0.00 51 993.8
20210618075556 80 355 1.0 4.0 0.00 0.00 0.00 52 993.8
20210618075456 81 1 0.0 4.0 0.00 0.00 0.00 52 993.8
20210618075356 81 2 1.0 4.0 0.00 0.00 0.00 51 993.9
20210618075255 81 7 0.0 4.0 0.00 0.00 0.00 53 994.0
20210618075156 80 16 1.0 4.0 0.00 0.00 0.00 52 994.0
20210618075056 80 21 2.0 4.0 0.00 0.00 0.00 54 993.8
20210618074956 79 13 2.0 4.0 0.00 0.00 0.00 54 994.0
20210618074855 79 3 2.0 4.0 0.00 0.00 0.00 53 994.0
20210618074756 79 14 0.0 2.0 0.00 0.00 0.00 54 994.0
20210618074656 78 28 0.0 2.0 0.00 0.00 0.00 54 993.8
20210618074556 79 28 0.0 2.0 0.00 0.00 0.00 53 994.1
20210618074457 79 28 0.0 2.0 0.00 0.00 0.00 53 994.1
20210618074356 79 45 0.0 2.0 0.00 0.00 0.00 53 994.1
20210618074255 79 45 0.0 2.0 0.00 0.00 0.00 54 994.1
20210618074156 79 45 0.0 2.0 0.00 0.00 0.00 54 994.0
20210618074056 78 45 0.0 2.0 0.00 0.00 0.00 54 993.9
20210618073956 79 45 0.0 2.0 0.00 0.00 0.00 53 994.1
20210618073855 79 45 1.0 2.0 0.00 0.00 0.00 55 994.1
20210618073755 79 46 0.0 2.0 0.00 0.00 0.00 54 994.1
20210618073656 79 0 0.0 0.0 0.00 0.00 0.00 53 994.0
20210618073556 79 314 0.0 2.0 0.00 0.00 0.00 53 993.9
20210618073456 79 320 0.0 4.0 0.00 0.00 0.00 54 993.8
20210618073355 79 329 0.0 4.0 0.00 0.00 0.00 53 993.8
20210618073256 80 352 0.0 4.0 0.00 0.00 0.00 53 993.7
20210618073156 79 353 0.0 4.0 0.00 0.00 0.00 53 993.8
20210618073056 80 353 0.0 4.0 0.00 0.00 0.00 53 993.9
20210618072958 80 353 0.0 4.0 0.00 0.00 0.00 52 994.0
20210618072856 79 353 0.0 4.0 0.00 0.00 0.00 54 993.8
20210618072756 79 353 0.0 4.0 0.00 0.00 0.00 53 993.9
20210618072655 79 353 0.0 4.0 0.00 0.00 0.00 53 994.0
20210618072556 78 359 2.0 4.0 0.00 0.00 0.00 54 993.8
20210618072456 79 22 1.0 4.0 0.00 0.00 0.00 54 993.8
20210618072356 78 31 2.0 4.0 0.00 0.00 0.00 53 993.7
20210618072256 78 1 1.0 2.0 0.00 0.00 0.00 54 993.8
20210618072156 78 0 0.0 0.0 0.00 0.00 0.00 54 993.9
20210618072056 78 0 0.0 0.0 0.00 0.00 0.00 54 993.8
20210618071956 78 0 0.0 0.0 0.00 0.00 0.00 54 993.8
20210618071856 78 0 0.0 0.0 0.00 0.00 0.00 54 993.8
20210618071756 78 0 0.0 0.0 0.00 0.00 0.00 55 994.1
20210618071656 78 0 0.0 0.0 0.00 0.00 0.00 55 993.9
20210618071556 78 0 0.0 0.0 0.00 0.00 0.00 54 993.8
20210618071458 79 0 0.0 0.0 0.00 0.00 0.00 53 993.7
20210618071356 79 0 0.0 0.0 0.00 0.00 0.00 53 993.8
20210618071256 79 248 0.0 2.0 0.00 0.00 0.00 53 993.9
20210618071156 79 248 0.0 2.0 0.00 0.00 0.00 53 993.8
20210618071055 78 248 0.0 2.0 0.00 0.00 0.00 53 994.0
20210618070956 79 248 0.0 2.0 0.00 0.00 0.00 53 993.9
20210618070856 79 248 0.0 2.0 0.00 0.00 0.00 53 993.9
20210618070756 79 248 0.0 2.0 0.00 0.00 0.00 54 994.0
20210618070656 78 248 0.0 6.0 0.00 0.00 0.00 53 994.1
20210618070555 78 243 0.0 6.0 0.00 0.00 0.00 55 993.8
20210618070456 79 239 0.0 6.0 0.00 0.00 0.00 53 994.1
20210618070356 79 236 0.0 6.0 0.00 0.00 0.00 54 993.8
20210618070256 78 234 0.0 6.0 0.00 0.00 0.00 54 993.8
20210618070155 78 231 2.0 6.0 0.00 0.00 0.00 54 993.7
20210618070056 78 227 0.0 6.0 0.00 0.00 0.00 54 993.9
20210618065957 78 222 1.0 6.0 0.00 0.00 0.00 55 994.0
20210618065855 77 215 1.0 6.0 0.00 0.00 0.00 55 993.9
20210618065756 77 213 2.0 6.0 0.00 0.00 0.00 54 993.8
20210618065656 77 207 3.0 6.0 0.00 0.00 0.00 54 993.9
20210618065556 77 197 2.0 4.0 0.00 0.00 0.00 53 993.9
20210618065456 78 204 1.0 2.0 0.00 0.00 0.00 54 993.9
20210618065356 77 216 0.0 2.0 0.00 0.00 0.00 54 993.7
20210618065256 77 217 1.0 2.0 0.00 0.00 0.00 54 993.8
20210618065156 77 225 0.0 2.0 0.00 0.00 0.00 54 993.9
20210618065055 77 233 1.0 2.0 0.00 0.00 0.00 54 994.1
20210618064955 77 241 2.0 4.0 0.00 0.00 0.00 54 993.9
20210618064856 77 248 1.0 4.0 0.00 0.00 0.00 53 993.8
20210618064756 78 250 0.0 4.0 0.00 0.00 0.00 54 994.0
20210618064656 77 252 0.0 4.0 0.00 0.00 0.00 54 993.8
20210618064556 77 254 0.0 4.0 0.00 0.00 0.00 55 993.8
20210618064457 76 256 2.0 4.0 0.00 0.00 0.00 55 993.8
20210618064356 76 258 0.0 4.0 0.00 0.00 0.00 55 993.8
20210618064256 77 260 0.0 4.0 0.00 0.00 0.00 55 993.7
20210618064156 76 261 2.0 4.0 0.00 0.00 0.00 54 993.8
20210618064056 76 264 2.0 4.0 0.00 0.00 0.00 54 993.8
20210618063956 76 269 1.0 2.0 0.00 0.00 0.00 55 993.8
20210618063856 76 270 0.0 2.0 0.00 0.00 0.00 55 993.8
20210618063756 77 270 1.0 2.0 0.00 0.00 0.00 54 993.9
20210618063656 78 270 0.0 2.0 0.00 0.00 0.00 53 994.0
20210618063556 78 268 0.0 2.0 0.00 0.00 0.00 54 993.9
20210618063455 78 241 0.0 4.0 0.00 0.00 0.00 54 993.8
20210618063356 78 231 0.0 4.0 0.00 0.00 0.00 54 993.8
20210618063256 78 217 0.0 4.0 0.00 0.00 0.00 54 994.0
20210618063156 78 206 0.0 4.0 0.00 0.00 0.00 54 993.9
20210618063056 77 202 0.0 4.0 0.00 0.00 0.00 55 993.9
20210618062958 76 196 0.0 4.0 0.00 0.00 0.00 57 993.9
20210618062856 76 194 0.0 4.0 0.00 0.00 0.00 57 993.9
20210618062756 76 192 1.0 4.0 0.00 0.00 0.00 57 994.0
20210618062656 75 186 2.0 4.0 0.00 0.00 0.00 57 993.8
20210618062556 75 181 2.0 4.0 0.00 0.00 0.00 57 993.9
20210618062456 75 186 2.0 4.0 0.00 0.00 0.00 56 993.8
20210618062356 75 181 2.0 2.0 0.00 0.00 0.00 56 993.7
20210618062257 75 181 2.0 2.0 0.00 0.00 0.00 57 993.9
20210618062156 75 181 1.0 2.0 0.00 0.00 0.00 57 994.0
20210618062056 75 181 1.0 2.0 0.00 0.00 0.00 57 993.7
20210618061956 75 181 1.0 2.0 0.00 0.00 0.00 58 993.9
20210618061855 74 181 1.0 2.0 0.00 0.00 0.00 58 993.7
20210618061756 74 177 2.0 4.0 0.00 0.00 0.00 57 993.8
20210618061656 74 168 2.0 4.0 0.00 0.00 0.00 58 994.0
20210618061556 75 162 0.0 4.0 0.00 0.00 0.00 57 993.8
20210618061458 75 157 0.0 4.0 0.00 0.00 0.00 58 993.7
20210618061357 74 154 0.0 4.0 0.00 0.00 0.00 58 993.7
20210618061256 74 153 1.0 4.0 0.00 0.00 0.00 59 993.8
20210618061156 74 149 2.0 4.0 0.00 0.00 0.00 59 993.7
20210618061056 74 144 1.0 4.0 0.00 0.00 0.00 58 993.4
20210618060957 74 149 1.0 4.0 0.00 0.00 0.00 58 993.7
20210618060856 74 152 2.0 4.0 0.00 0.00 0.00 59 994.0
20210618060756 74 156 2.0 4.0 0.00 0.00 0.00 60 993.9
20210618060656 74 166 2.0 4.0 0.00 0.00 0.00 60 993.8
20210618060556 73 178 2.0 4.0 0.00 0.00 0.00 60 993.9
20210618060456 73 191 2.0 4.0 0.00 0.00 0.00 60 993.8
20210618060356 74 199 1.0 4.0 0.00 0.00 0.00 61 993.7
20210618060256 73 204 0.0 4.0 0.00 0.00 0.00 60 993.9
20210618060156 73 214 2.0 4.0 0.00 0.00 0.00 60 993.9
20210618060055 73 225 2.0 4.0 0.00 0.00 0.00 60 993.8
20210618055958 73 225 2.0 2.0 0.00 0.00 0.00 60 993.9
20210618055856 73 225 0.0 2.0 0.00 0.00 0.00 61 993.7
20210618055756 73 225 1.0 2.0 0.00 0.00 0.00 60 993.8
20210618055655 73 225 1.0 2.0 0.00 0.00 0.00 60 993.9
20210618055556 74 225 0.0 2.0 0.00 0.00 0.00 60 993.9
20210618055456 73 225 1.0 2.0 0.00 0.00 0.00 61 993.9
20210618055357 73 225 0.0 2.0 0.00 0.00 0.00 60 993.8
20210618055257 73 225 0.0 2.0 0.00 0.00 0.00 60 993.9
20210618055156 73 225 0.0 2.0 0.00 0.00 0.00 60 993.7
20210618055056 74 225 0.0 2.0 0.00 0.00 0.00 60 993.8
20210618054955 74 225 0.0 2.0 0.00 0.00 0.00 60 993.8
20210618054856 74 225 0.0 2.0 0.00 0.00 0.00 59 993.7
20210618054757 74 225 0.0 2.0 0.00 0.00 0.00 60 993.5
20210618054657 74 225 0.0 2.0 0.00 0.00 0.00 60 993.6
20210618054556 73 225 0.0 2.0 0.00 0.00 0.00 61 993.6
20210618054458 73 225 0.0 2.0 0.00 0.00 0.00 62 993.5
20210618054356 73 225 0.0 2.0 0.00 0.00 0.00 61 993.6
20210618054256 73 225 1.0 2.0 0.00 0.00 0.00 62 993.8
20210618054156 72 225 0.0 2.0 0.00 0.00 0.00 61 993.7
20210618054056 72 225 0.0 2.0 0.00 0.00 0.00 62 993.7
20210618053957 72 225 2.0 2.0 0.00 0.00 0.00 61 993.6
20210618053856 73 0 0.0 0.0 0.00 0.00 0.00 61 993.7
20210618053756 73 0 0.0 0.0 0.00 0.00 0.00 61 993.6
20210618053657 73 0 0.0 0.0 0.00 0.00 0.00 61 993.8
20210618053557 73 0 0.0 0.0 0.00 0.00 0.00 62 993.9
20210618053456 73 0 0.0 0.0 0.00 0.00 0.00 63 993.8
20210618053356 73 0 0.0 0.0 0.00 0.00 0.00 61 993.7
20210618053257 73 0 0.0 0.0 0.00 0.00 0.00 61 993.8
20210618053157 73 0 0.0 0.0 0.00 0.00 0.00 61 993.8
20210618053056 73 0 0.0 0.0 0.00 0.00 0.00 62 993.7
20210618052957 73 0 0.0 0.0 0.00 0.00 0.00 63 993.8
20210618052856 73 0 0.0 0.0 0.00 0.00 0.00 64 993.8
20210618052755 73 0 0.0 0.0 0.00 0.00 0.00 64 993.9
20210618052656 73 0 0.0 0.0 0.00 0.00 0.00 64 993.8
20210618052556 73 0 0.0 0.0 0.00 0.00 0.00 64 993.8
20210618052456 74 0 0.0 0.0 0.00 0.00 0.00 63 993.6
20210618052356 74 0 0.0 0.0 0.00 0.00 0.00 62 993.8
20210618052257 74 0 0.0 0.0 0.00 0.00 0.00 61 993.8
20210618052156 73 0 0.0 0.0 0.00 0.00 0.00 63 993.8
20210618052056 72 0 0.0 0.0 0.00 0.00 0.00 64 994.1
20210618051956 72 0 0.0 0.0 0.00 0.00 0.00 65 993.7
20210618051856 73 0 0.0 0.0 0.00 0.00 0.00 64 993.7
20210618051757 73 0 0.0 0.0 0.00 0.00 0.00 62 994.0
20210618051657 73 0 0.0 0.0 0.00 0.00 0.00 62 993.8
20210618051557 73 0 0.0 0.0 0.00 0.00 0.00 63 994.0
20210618051458 73 0 0.0 0.0 0.00 0.00 0.00 63 993.7
20210618051356 73 0 0.0 0.0 0.00 0.00 0.00 63 993.8
20210618051256 72 0 0.0 0.0 0.00 0.00 0.00 64 993.9
20210618051156 72 0 0.0 0.0 0.00 0.00 0.00 64 993.9
20210618051056 72 0 0.0 0.0 0.00 0.00 0.00 64 993.8
20210618050957 72 0 0.0 0.0 0.00 0.00 0.00 65 993.9
20210618050856 71 225 0.0 2.0 0.00 0.00 0.00 65 993.9
20210618050756 71 225 0.0 2.0 0.00 0.00 0.00 65 993.8
20210618050656 71 225 0.0 2.0 0.00 0.00 0.00 66 993.9
20210618050556 71 225 0.0 2.0 0.00 0.00 0.00 65 993.9
20210618050456 71 225 0.0 2.0 0.00 0.00 0.00 65 993.9
20210618050356 71 225 0.0 2.0 0.00 0.00 0.00 66 994.0
20210618050256 71 225 0.0 2.0 0.00 0.00 0.00 65 994.0
20210618050156 71 225 0.0 2.0 0.00 0.00 0.00 66 994.1
20210618050056 70 225 0.0 2.0 0.00 0.00 0.00 68 993.7
20210618045958 69 225 0.0 2.0 0.00 0.00 0.00 68 994.0
20210618045857 69 225 0.0 2.0 0.00 0.00 0.00 68 994.1
20210618045757 69 225 0.0 2.0 0.00 0.00 0.00 68 993.8
20210618045656 69 225 0.0 2.0 0.00 0.00 0.00 68 994.0
20210618045556 69 225 0.0 2.0 0.00 0.00 0.00 69 994.0
20210618045456 69 225 1.0 2.0 0.00 0.00 0.00 68 994.1
20210618045356 69 225 0.0 2.0 0.00 0.00 0.00 69 993.9
20210618045256 69 0 0.0 0.0 0.00 0.00 0.00 69 994.0
20210618045156 69 0 0.0 0.0 0.00 0.00 0.00 69 993.9
20210618045056 69 0 0.0 0.0 0.00 0.00 0.00 69 993.9
20210618044956 69 0 0.0 0.0 0.00 0.00 0.00 69 993.9
20210618044856 68 0 0.0 0.0 0.00 0.00 0.00 69 994.0
20210618044756 68 0 0.0 0.0 0.00 0.00 0.00 69 993.9
20210618044656 68 0 0.0 0.0 0.00 0.00 0.00 69 993.8
20210618044556 68 0 0.0 0.0 0.00 0.00 0.00 70 993.8
20210618044458 68 0 0.0 0.0 0.00 0.00 0.00 70 993.8
20210618044356 68 0 0.0 0.0 0.00 0.00 0.00 69 993.8
20210618044256 68 0 0.0 0.0 0.00 0.00 0.00 69 993.8
20210618044157 68 0 0.0 0.0 0.00 0.00 0.00 68 993.7
20210618044056 68 0 0.0 0.0 0.00 0.00 0.00 68 993.9
20210618043956 68 0 0.0 0.0 0.00 0.00 0.00 69 993.7
20210618043856 68 225 0.0 2.0 0.00 0.00 0.00 68 993.6
20210618043756 68 225 0.0 2.0 0.00 0.00 0.00 68 993.7
20210618043656 68 225 0.0 2.0 0.00 0.00 0.00 69 993.5
20210618043556 68 225 0.0 2.0 0.00 0.00 0.00 69 993.8
20210618043456 68 225 0.0 2.0 0.00 0.00 0.00 69 993.7
20210618043356 68 225 0.0 2.0 0.00 0.00 0.00 67 993.7
20210618043256 69 225 0.0 2.0 0.00 0.00 0.00 67 993.7
20210618043156 69 225 0.0 2.0 0.00 0.00 0.00 67 993.7
20210618043056 68 225 0.0 2.0 0.00 0.00 0.00 67 993.6
20210618042959 68 225 0.0 2.0 0.00 0.00 0.00 67 993.7
20210618042856 69 225 1.0 2.0 0.00 0.00 0.00 67 993.5
20210618042756 69 225 0.0 2.0 0.00 0.00 0.00 67 993.7
20210618042657 69 225 0.0 2.0 0.00 0.00 0.00 67 993.6
20210618042556 69 0 0.0 0.0 0.00 0.00 0.00 68 993.5
20210618042456 69 0 0.0 0.0 0.00 0.00 0.00 68 993.5
20210618042356 69 0 0.0 0.0 0.00 0.00 0.00 68 993.6
20210618042256 69 0 0.0 0.0 0.00 0.00 0.00 67 993.6
20210618042156 69 0 0.0 0.0 0.00 0.00 0.00 68 993.4
20210618042056 68 225 0.0 2.0 0.00 0.00 0.00 69 993.4
20210618041956 68 225 0.0 2.0 0.00 0.00 0.00 69 993.6
20210618041856 68 225 0.0 2.0 0.00 0.00 0.00 70 993.5
20210618041756 68 225 0.0 2.0 0.00 0.00 0.00 70 993.4
20210618041657 68 225 0.0 2.0 0.00 0.00 0.00 68 993.5
20210618041556 68 225 0.0 2.0 0.00 0.00 0.00 70 993.5
20210618041458 67 235 0.0 2.0 0.00 0.00 0.00 70 993.5
20210618041357 67 239 0.0 2.0 0.00 0.00 0.00 70 993.4
20210618041256 68 240 0.0 2.0 0.00 0.00 0.00 70 993.6
20210618041156 68 240 0.0 2.0 0.00 0.00 0.00 69 993.5
20210618041056 68 243 0.0 2.0 0.00 0.00 0.00 67 993.6
20210618040956 68 248 0.0 2.0 0.00 0.00 0.00 67 993.4
20210618040856 68 248 0.0 2.0 0.00 0.00 0.00 67 993.5
20210618040756 68 248 0.0 2.0 0.00 0.00 0.00 67 993.4
20210618040656 68 248 0.0 2.0 0.00 0.00 0.00 68 993.3
20210618040556 68 257 0.0 2.0 0.00 0.00 0.00 68 993.5
20210618040456 68 268 1.0 4.0 0.00 0.00 0.00 68 993.5
20210618040357 68 283 0.0 4.0 0.00 0.00 0.00 68 993.4
20210618040257 68 302 0.0 4.0 0.00 0.00 0.00 68 993.3
20210618040156 68 309 0.0 4.0 0.00 0.00 0.00 68 993.5
20210618040056 68 315 0.0 4.0 0.00 0.00 0.00 68 993.5
20210618035958 68 319 0.0 4.0 0.00 0.00 0.00 68 993.3
20210618035856 68 335 0.0 4.0 0.00 0.00 0.00 68 993.3
20210618035756 68 340 0.0 4.0 0.00 0.00 0.00 67 993.2
20210618035656 68 343 0.0 4.0 0.00 0.00 0.00 68 993.2
20210618035556 68 347 0.0 4.0 0.00 0.00 0.00 67 993.3
20210618035456 67 2 1.0 4.0 0.00 0.00 0.00 68 993.3
20210618035356 67 7 1.0 4.0 0.00 0.00 0.00 70 993.1
20210618035256 67 9 1.0 4.0 0.00 0.00 0.00 70 993.2
20210618035156 67 13 1.0 4.0 0.00 0.00 0.00 70 993.2
20210618035056 66 17 2.0 4.0 0.00 0.00 0.00 72 993.3
20210618034956 65 23 2.0 4.0 0.00 0.00 0.00 74 993.3
20210618034857 65 23 2.0 2.0 0.00 0.00 0.00 75 993.4
20210618034756 65 23 1.0 2.0 0.00 0.00 0.00 74 993.3
20210618034656 64 23 0.0 2.0 0.00 0.00 0.00 79 993.3
20210618034556 64 23 1.0 2.0 0.00 0.00 0.00 80 993.3
20210618034457 64 22 1.0 2.0 0.00 0.00 0.00 80 993.3
20210618034357 64 22 1.0 2.0 0.00 0.00 0.00 79 993.3
20210618034257 64 0 0.0 0.0 0.00 0.00 0.00 79 993.3
20210618034156 64 0 0.0 0.0 0.00 0.00 0.00 80 993.4
20210618034056 64 0 0.0 0.0 0.00 0.00 0.00 80 993.6
20210618033956 64 0 0.0 0.0 0.00 0.00 0.00 80 993.4
20210618033856 64 0 0.0 0.0 0.00 0.00 0.00 80 993.3
20210618033756 64 0 0.0 0.0 0.00 0.00 0.00 80 993.4
20210618033656 64 0 0.0 0.0 0.00 0.00 0.00 79 993.6
20210618033556 64 0 0.0 0.0 0.00 0.00 0.00 79 993.5
20210618033457 64 0 0.0 0.0 0.00 0.00 0.00 79 993.5
20210618033356 64 0 0.0 0.0 0.00 0.00 0.00 79 993.5
20210618033256 64 0 0.0 0.0 0.00 0.00 0.00 79 993.3
20210618033156 64 0 0.0 0.0 0.00 0.00 0.00 79 993.4
20210618033056 64 0 0.0 0.0 0.00 0.00 0.00 80 993.3
20210618032957 64 0 0.0 0.0 0.00 0.00 0.00 80 993.3
20210618032856 64 0 0.0 0.0 0.00 0.00 0.00 80 993.3
20210618032756 64 0 0.0 0.0 0.00 0.00 0.00 80 993.4
20210618032656 64 0 0.0 0.0 0.00 0.00 0.00 80 993.4
20210618032556 64 0 0.0 0.0 0.00 0.00 0.00 80 993.3
20210618032456 64 0 0.0 0.0 0.00 0.00 0.00 80 993.4
20210618032356 64 0 0.0 0.0 0.00 0.00 0.00 80 993.2
20210618032256 64 0 0.0 0.0 0.00 0.00 0.00 80 993.3
20210618032156 64 0 0.0 0.0 0.00 0.00 0.00 80 993.3
20210618032056 64 0 0.0 0.0 0.00 0.00 0.00 80 993.2
20210618031956 64 0 0.0 0.0 0.00 0.00 0.00 79 993.3
20210618031856 64 0 0.0 0.0 0.00 0.00 0.00 79 993.2
20210618031757 64 0 0.0 0.0 0.00 0.00 0.00 79 993.3
20210618031656 64 0 0.0 0.0 0.00 0.00 0.00 79 993.2
20210618031556 64 0 0.0 0.0 0.00 0.00 0.00 79 993.2
20210618031458 64 0 0.0 0.0 0.00 0.00 0.00 79 993.1
20210618031356 64 0 0.0 0.0 0.00 0.00 0.00 79 993.3
20210618031256 64 0 0.0 0.0 0.00 0.00 0.00 79 993.1
20210618031157 64 0 0.0 0.0 0.00 0.00 0.00 79 993.3
20210618031056 64 203 0.0 4.0 0.00 0.00 0.00 79 993.0
20210618030956 64 213 0.0 4.0 0.00 0.00 0.00 79 993.2
20210618030856 64 213 0.0 6.0 0.00 0.00 0.00 79 993.2
20210618030756 64 217 0.0 6.0 0.00 0.00 0.00 79 993.5
20210618030656 64 224 0.0 6.0 0.00 0.00 0.00 79 993.4
20210618030556 64 224 0.0 6.0 0.00 0.00 0.00 78 993.5
20210618030456 65 226 0.0 6.0 0.00 0.00 0.00 78 993.4
20210618030356 65 228 0.0 6.0 0.00 0.00 0.00 78 993.5
20210618030256 65 231 0.0 6.0 0.00 0.00 0.00 78 993.3
20210618030156 65 235 2.0 6.0 0.00 0.00 0.00 78 993.6
20210618030056 65 242 3.0 6.0 0.00 0.00 0.00 78 993.6
20210618025958 65 248 3.0 6.0 0.00 0.00 0.00 78 993.6
20210618025857 65 259 3.0 6.0 0.00 0.00 0.00 77 993.6
20210618025756 65 267 2.0 6.0 0.00 0.00 0.00 77 993.4
20210618025656 65 273 3.0 6.0 0.00 0.00 0.00 76 993.5
20210618025556 65 299 4.0 6.0 0.00 0.00 0.00 76 993.4
20210618025456 65 337 2.0 4.0 0.00 0.00 0.00 75 993.2
20210618025356 65 1 2.0 4.0 0.00 0.00 0.00 74 993.0
20210618025256 66 16 2.0 4.0 0.00 0.00 0.00 74 992.8
20210618025156 66 23 2.0 2.0 0.00 0.00 0.00 73 992.9
20210618025057 67 23 2.0 2.0 0.00 0.00 0.00 72 992.7
20210618024956 68 22 1.0 2.0 0.00 0.00 0.00 69 992.9
20210618024856 69 22 0.0 2.0 0.00 0.00 0.00 68 992.8
20210618024756 69 23 0.0 2.0 0.00 0.00 0.00 66 992.8
20210618024656 69 23 0.0 2.0 0.00 0.00 0.00 64 992.7
20210618024556 70 23 1.0 2.0 0.00 0.00 0.00 62 992.8
20210618024457 70 23 1.0 2.0 0.00 0.00 0.00 63 992.6
20210618024357 70 23 1.0 2.0 0.00 0.00 0.00 61 992.6
20210618024256 71 23 1.0 2.0 0.00 0.00 0.00 61 992.5
20210618024156 71 23 1.0 2.0 0.00 0.00 0.00 60 992.6
20210618024056 71 23 1.0 2.0 0.00 0.00 0.00 60 992.4
20210618023956 70 23 1.0 2.0 0.00 0.00 0.00 60 992.6
20210618023857 70 23 1.0 2.0 0.00 0.00 0.00 60 992.8
20210618023756 70 23 0.0 2.0 0.00 0.00 0.00 60 992.5
20210618023656 69 23 0.0 2.0 0.00 0.00 0.00 61 992.4
20210618023556 69 23 0.0 2.0 0.00 0.00 0.00 61 992.5
20210618023456 69 22 0.0 2.0 0.00 0.00 0.00 61 992.7
20210618023356 69 0 0.0 0.0 0.00 0.00 0.00 62 992.6
20210618023256 69 0 0.0 0.0 0.00 0.00 0.00 63 992.8
20210618023156 69 0 0.0 0.0 0.00 0.00 0.00 63 992.8
20210618023056 69 0 0.0 0.0 0.00 0.00 0.00 64 992.9
20210618022957 69 0 0.0 0.0 0.00 0.00 0.00 64 992.7
20210618022856 68 0 0.0 0.0 0.00 0.00 0.00 66 992.7
20210618022756 68 0 0.0 0.0 0.00 0.00 0.00 66 992.6
20210618022656 69 0 0.0 0.0 0.00 0.00 0.00 65 992.8
20210618022556 68 0 0.0 0.0 0.00 0.00 0.00 66 992.7
20210618022456 68 0 0.0 0.0 0.00 0.00 0.00 66 992.9
20210618022356 68 0 0.0 0.0 0.00 0.00 0.00 66 992.7
20210618022256 68 0 0.0 0.0 0.00 0.00 0.00 67 992.6
20210618022156 67 0 0.0 0.0 0.00 0.00 0.00 68 992.8
20210618022056 67 0 0.0 0.0 0.00 0.00 0.00 70 992.7
20210618021956 67 0 0.0 0.0 0.00 0.00 0.00 70 992.9
20210618021856 67 0 0.0 0.0 0.00 0.00 0.00 70 992.6
20210618021756 67 0 0.0 0.0 0.00 0.00 0.00 70 993.0
20210618021656 67 0 0.0 0.0 0.00 0.00 0.00 70 992.8
20210618021556 67 0 0.0 0.0 0.00 0.00 0.00 71 992.7
20210618021457 67 0 0.0 0.0 0.00 0.00 0.00 71 992.8
20210618021356 67 0 0.0 0.0 0.00 0.00 0.00 72 992.8
20210618021257 67 0 0.0 0.0 0.00 0.00 0.00 72 992.8
20210618021156 67 0 0.0 0.0 0.00 0.00 0.00 72 992.7
20210618021056 67 0 0.0 0.0 0.00 0.00 0.00 73 992.8
20210618020956 67 0 0.0 0.0 0.00 0.00 0.00 73 992.9
20210618020857 67 0 0.0 0.0 0.00 0.00 0.00 73 992.7
20210618020756 67 0 0.0 0.0 0.00 0.00 0.00 73 993.0
20210618020656 67 0 0.0 0.0 0.00 0.00 0.00 73 993.0
20210618020556 66 0 0.0 0.0 0.00 0.00 0.00 74 993.1
20210618020456 66 0 0.0 0.0 0.00 0.00 0.00 74 992.9
20210618020357 66 0 0.0 0.0 0.00 0.00 0.00 75 992.9
20210618020256 66 0 0.0 0.0 0.00 0.00 0.00 75 993.0
20210618020156 65 0 0.0 0.0 0.00 0.00 0.00 76 992.9
20210618020056 65 0 0.0 0.0 0.00 0.00 0.00 76 993.0
20210618015958 65 0 0.0 0.0 0.00 0.00 0.00 76 993.1
20210618015856 65 0 0.0 0.0 0.00 0.00 0.00 77 993.0
20210618015756 65 0 0.0 0.0 0.00 0.00 0.00 77 992.9
20210618015656 65 0 0.0 0.0 0.00 0.00 0.00 77 993.3
20210618015556 65 0 0.0 0.0 0.00 0.00 0.00 78 993.0
20210618015456 65 0 0.0 0.0 0.00 0.00 0.00 78 993.4
20210618015356 65 0 0.0 0.0 0.00 0.00 0.00 79 993.0
20210618015256 65 0 0.0 0.0 0.00 0.00 0.00 79 993.2
20210618015156 65 0 0.0 0.0 0.00 0.00 0.00 79 993.1
20210618015056 65 0 0.0 0.0 0.00 0.00 0.00 79 993.1
20210618014956 65 0 0.0 0.0 0.00 0.00 0.00 79 993.2
20210618014856 65 0 0.0 0.0 0.00 0.00 0.00 79 993.1
20210618014756 65 0 0.0 0.0 0.00 0.00 0.00 79 993.3
20210618014657 65 0 0.0 0.0 0.00 0.00 0.00 79 993.1
20210618014556 65 0 0.0 0.0 0.00 0.00 0.00 79 993.0
20210618014458 65 0 0.0 0.0 0.00 0.00 0.00 78 993.0
20210618014356 65 0 0.0 0.0 0.00 0.00 0.00 78 993.1
20210618014256 65 0 0.0 0.0 0.00 0.00 0.00 78 993.1
20210618014156 65 0 0.0 0.0 0.00 0.00 0.00 78 993.2
20210618014057 65 0 0.0 0.0 0.00 0.00 0.00 78 992.9
20210618013956 65 0 0.0 0.0 0.00 0.00 0.00 78 992.9
20210618013856 65 0 0.0 0.0 0.00 0.00 0.00 78 993.1
20210618013756 65 0 0.0 0.0 0.00 0.00 0.00 78 993.0
20210618013657 65 0 0.0 0.0 0.00 0.00 0.00 78 993.1
20210618013556 65 0 0.0 0.0 0.00 0.00 0.00 78 993.0
20210618013456 65 0 0.0 0.0 0.00 0.00 0.00 78 993.2
20210618013356 65 0 0.0 0.0 0.00 0.00 0.00 77 993.0
20210618013257 65 0 0.0 0.0 0.00 0.00 0.00 77 993.1
20210618013156 65 0 0.0 0.0 0.00 0.00 0.00 77 993.1
20210618013056 65 0 0.0 0.0 0.00 0.00 0.00 77 993.3
20210618012958 65 0 0.0 0.0 0.00 0.00 0.00 78 993.2
20210618012856 65 0 0.0 0.0 0.00 0.00 0.00 77 993.1
20210618012756 66 0 0.0 0.0 0.00 0.00 0.00 77 993.2
20210618012657 66 0 0.0 0.0 0.00 0.00 0.00 77 993.3
20210618012556 66 0 0.0 0.0 0.00 0.00 0.00 77 993.0
20210618012456 66 0 0.0 0.0 0.00 0.00 0.00 77 993.1
20210618012356 65 0 0.0 0.0 0.00 0.00 0.00 77 993.3
20210618012256 65 0 0.0 0.0 0.00 0.00 0.00 77 993.4
20210618012156 65 0 0.0 0.0 0.00 0.00 0.00 77 993.3
20210618012056 65 0 0.0 0.0 0.00 0.00 0.00 77 993.2
20210618011956 65 0 0.0 0.0 0.00 0.00 0.00 77 993.2
20210618011856 65 0 0.0 0.0 0.00 0.00 0.00 77 993.2
20210618011757 66 0 0.0 0.0 0.00 0.00 0.00 77 992.8
20210618011656 66 0 0.0 0.0 0.00 0.00 0.00 77 993.2
20210618011556 66 0 0.0 0.0 0.00 0.00 0.00 77 993.2
20210618011457 66 0 0.0 0.0 0.00 0.00 0.00 77 993.2
20210618011356 66 0 0.0 0.0 0.00 0.00 0.00 77 993.0
20210618011256 66 0 0.0 0.0 0.00 0.00 0.00 77 993.0
20210618011156 66 0 0.0 0.0 0.00 0.00 0.00 77 993.1
20210618011056 66 0 0.0 0.0 0.00 0.00 0.00 77 993.1
20210618010956 66 0 0.0 0.0 0.00 0.00 0.00 77 993.0
20210618010857 66 0 0.0 0.0 0.00 0.00 0.00 77 993.0
20210618010756 66 0 0.0 0.0 0.00 0.00 0.00 78 993.0
20210618010656 65 0 0.0 0.0 0.00 0.00 0.00 77 993.0
20210618010556 65 0 0.0 0.0 0.00 0.00 0.00 77 992.9
20210618010456 65 0 0.0 0.0 0.00 0.00 0.00 77 993.0
20210618010357 66 0 0.0 0.0 0.00 0.00 0.00 77 993.0
20210618010256 66 0 0.0 0.0 0.00 0.00 0.00 76 993.0
20210618010156 66 0 0.0 0.0 0.00 0.00 0.00 75 993.1
20210618010056 66 0 0.0 0.0 0.00 0.00 0.00 76 993.1
20210618005958 66 0 0.0 0.0 0.00 0.00 0.00 76 993.0
20210618005856 66 0 0.0 0.0 0.00 0.00 0.00 76 992.9
20210618005757 66 0 0.0 0.0 0.00 0.00 0.00 75 993.0
20210618005656 66 0 0.0 0.0 0.00 0.00 0.00 75 992.9
20210618005556 66 0 0.0 0.0 0.00 0.00 0.00 75 993.1
20210618005456 66 0 0.0 0.0 0.00 0.00 0.00 74 993.0
20210618005356 66 0 0.0 0.0 0.00 0.00 0.00 73 992.7
20210618005256 66 0 0.0 0.0 0.00 0.00 0.00 73 992.8
20210618005157 66 0 0.0 0.0 0.00 0.00 0.00 73 993.1
20210618005056 66 0 0.0 0.0 0.00 0.00 0.00 73 992.9
20210618004956 66 0 0.0 0.0 0.00 0.00 0.00 73 993.0
20210618004856 66 0 0.0 0.0 0.00 0.00 0.00 74 993.0
20210618004757 66 0 0.0 0.0 0.00 0.00 0.00 75 992.8
20210618004656 66 0 0.0 0.0 0.00 0.00 0.00 75 993.0
20210618004556 66 0 0.0 0.0 0.00 0.00 0.00 74 992.9
20210618004458 66 0 0.0 0.0 0.00 0.00 0.00 74 993.0
20210618004356 66 0 0.0 0.0 0.00 0.00 0.00 74 993.0
20210618004256 66 0 0.0 0.0 0.00 0.00 0.00 74 992.9
20210618004156 66 0 0.0 0.0 0.00 0.00 0.00 74 993.0
20210618004057 66 0 0.0 0.0 0.00 0.00 0.00 74 992.9
20210618003956 66 0 0.0 0.0 0.00 0.00 0.00 74 992.9
20210618003856 66 0 0.0 0.0 0.00 0.00 0.00 73 992.9